Time,TemperatureF,DewpointF,PressureIn,WindDirection,WindDirectionDegrees,WindSpeedMPH,WindSpeedGustMPH,Humidity,HourlyPrecipIn,Conditions,Clouds,dailyrainin,SoftwareType,DateUTC
2013-06-30 00:00:00,66.4,64.6,29.68,SSW,206,6.0,9.0,94,0.00,,---,0.09,VWS V12.08,2013-06-30 04:00:00,
2013-06-30 00:01:00,66.4,64.6,29.68,SSW,206,6.0,9.0,94,0.00,,---,0.09,VWS V12.08,2013-06-30 04:01:00,
2013-06-30 00:06:00,66.2,64.4,29.68,SSW,206,4.0,7.0,94,0.00,,---,0.00,VWS V12.08,2013-06-30 04:06:00,
2013-06-30 00:11:00,65.9,64.1,29.68,SSW,206,3.0,3.0,94,0.00,,---,0.00,VWS V12.08,2013-06-30 04:11:00,
2013-06-30 00:16:00,65.6,63.8,29.68,SSW,206,2.0,4.0,94,0.00,,---,0.00,VWS V12.08,2013-06-30 04:16:00,
2013-06-30 00:21:00,65.5,64.0,29.68,SSW,206,4.0,4.0,95,0.00,,---,0.00,VWS V12.08,2013-06-30 04:21:00,
2013-06-30 00:22:00,65.6,64.1,29.68,SSW,210,5.0,5.0,95,0.00,,---,0.00,VWS V12.08,2013-06-30 04:22:00,
2013-06-30 00:26:00,66.5,65.3,29.68,SSW,213,5.0,9.0,96,0.00,,---,0.00,VWS V12.08,2013-06-30 04:26:00,
2013-06-30 00:27:00,66.7,65.2,29.68,SSW,213,7.0,9.0,95,0.00,,---,0.00,VWS V12.08,2013-06-30 04:27:00,
2013-06-30 00:31:00,66.3,64.5,29.68,SSW,209,6.0,6.0,94,0.00,,---,0.00,VWS V12.08,2013-06-30 04:31:00,
2013-06-30 00:32:00,66.2,64.4,29.68,SSW,209,4.0,6.0,94,0.00,,---,0.00,VWS V12.08,2013-06-30 04:32:00,
2013-06-30 00:36:00,65.5,63.7,29.68,SSW,209,3.0,6.0,94,0.00,,---,0.00,VWS V12.08,2013-06-30 04:36:00,
2013-06-30 00:37:00,65.5,63.7,29.68,SSW,209,3.0,6.0,94,0.00,,---,0.00,VWS V12.08,2013-06-30 04:37:00,
2013-06-30 00:41:00,65.2,63.4,29.68,SSW,209,4.0,5.0,94,0.00,,---,0.00,VWS V12.08,2013-06-30 04:41:00,
2013-06-30 00:42:00,65.2,63.4,29.68,SSW,209,3.0,5.0,94,0.00,,---,0.00,VWS V12.08,2013-06-30 04:42:00,
2013-06-30 00:46:00,65.7,64.2,29.69,SSW,209,5.0,6.0,95,0.00,,---,0.00,VWS V12.08,2013-06-30 04:46:00,
2013-06-30 00:47:00,65.7,64.2,29.69,SSW,209,4.0,6.0,95,0.00,,---,0.00,VWS V12.08,2013-06-30 04:47:00,
2013-06-30 00:52:00,65.4,63.9,29.69,SSW,209,2.0,3.0,95,0.00,,---,0.00,VWS V12.08,2013-06-30 04:52:00,
2013-06-30 00:57:00,65.4,63.9,29.69,SW,221,6.0,6.0,95,0.00,,---,0.00,VWS V12.08,2013-06-30 04:57:00,
2013-06-30 00:58:00,65.5,64.0,29.69,SW,224,5.0,6.0,95,0.00,,---,0.00,VWS V12.08,2013-06-30 04:58:00,
2013-06-30 01:02:00,65.6,64.1,29.69,SW,224,5.0,7.0,95,0.00,,---,0.00,VWS V12.08,2013-06-30 05:02:00,
2013-06-30 01:03:00,65.6,64.1,29.69,SW,224,4.0,7.0,95,0.00,,---,0.00,VWS V12.08,2013-06-30 05:03:00,
2013-06-30 01:07:00,65.5,64.0,29.69,SW,224,5.0,7.0,95,0.00,,---,0.00,VWS V12.08,2013-06-30 05:07:00,
2013-06-30 01:08:00,65.5,64.0,29.69,SW,224,5.0,7.0,95,0.00,,---,0.00,VWS V12.08,2013-06-30 05:08:00,
2013-06-30 01:12:00,65.8,64.6,29.69,SW,217,6.0,7.0,96,0.00,,---,0.00,VWS V12.08,2013-06-30 05:12:00,
2013-06-30 01:13:00,65.8,64.6,29.69,SSW,213,5.0,7.0,96,0.00,,---,0.00,VWS V12.08,2013-06-30 05:13:00,
2013-06-30 01:17:00,65.9,64.4,29.69,SSW,213,6.0,9.0,95,0.00,,---,0.00,VWS V12.08,2013-06-30 05:17:00,
2013-06-30 01:18:00,65.9,64.4,29.69,SSW,213,3.0,9.0,95,0.00,,---,0.00,VWS V12.08,2013-06-30 05:18:00,
2013-06-30 01:22:00,65.9,64.4,29.69,SW,223,5.0,7.0,95,0.00,,---,0.00,VWS V12.08,2013-06-30 05:22:00,
2013-06-30 01:23:00,65.9,64.4,29.69,SW,223,5.0,7.0,95,0.00,,---,0.00,VWS V12.08,2013-06-30 05:23:00,
2013-06-30 01:27:00,65.9,64.4,29.69,SW,223,5.0,7.0,95,0.00,,---,0.00,VWS V12.08,2013-06-30 05:27:00,
2013-06-30 01:28:00,65.9,64.4,29.69,SW,223,4.0,7.0,95,0.00,,---,0.00,VWS V12.08,2013-06-30 05:28:00,
2013-06-30 01:33:00,65.7,64.2,29.69,SW,223,3.0,5.0,95,0.00,,---,0.00,VWS V12.08,2013-06-30 05:33:00,
2013-06-30 01:34:00,65.6,64.1,29.69,SW,223,3.0,5.0,95,0.00,,---,0.00,VWS V12.08,2013-06-30 05:34:00,
2013-06-30 01:38:00,65.6,64.1,29.69,SW,223,2.0,5.0,95,0.00,,---,0.00,VWS V12.08,2013-06-30 05:38:00,
2013-06-30 01:39:00,65.5,64.0,29.69,SW,223,4.0,5.0,95,0.00,,---,0.00,VWS V12.08,2013-06-30 05:39:00,
2013-06-30 01:43:00,65.4,63.9,29.69,SW,223,4.0,5.0,95,0.00,,---,0.00,VWS V12.08,2013-06-30 05:43:00,
2013-06-30 01:45:00,65.4,63.9,29.69,SW,223,5.0,5.0,95,0.00,,---,0.00,VWS V12.08,2013-06-30 05:45:00,
2013-06-30 01:48:00,65.3,63.8,29.69,SW,223,4.0,5.0,95,0.00,,---,0.00,VWS V12.08,2013-06-30 05:48:00,
2013-06-30 01:50:00,65.3,63.8,29.69,SW,223,4.0,5.0,95,0.00,,---,0.00,VWS V12.08,2013-06-30 05:50:00,
2013-06-30 01:53:00,65.3,63.8,29.69,SW,223,3.0,4.0,95,0.00,,---,0.00,VWS V12.08,2013-06-30 05:53:00,
2013-06-30 01:54:00,65.3,63.8,29.69,SW,223,3.0,4.0,95,0.00,,---,0.00,VWS V12.08,2013-06-30 05:54:00,
2013-06-30 01:55:00,65.2,63.7,29.69,SW,223,4.0,4.0,95,0.00,,---,0.00,VWS V12.08,2013-06-30 05:55:00,
2013-06-30 01:58:00,65.1,63.6,29.69,SW,223,4.0,5.0,95,0.00,,---,0.00,VWS V12.08,2013-06-30 05:58:00,
2013-06-30 01:59:00,65.1,63.6,29.69,SW,223,4.0,5.0,95,0.00,,---,0.00,VWS V12.08,2013-06-30 05:59:00,
2013-06-30 02:00:00,65.1,63.6,29.69,SW,223,4.0,5.0,95,0.00,,---,0.00,VWS V12.08,2013-06-30 06:00:00,
2013-06-30 02:03:00,65.2,63.7,29.69,SW,223,4.0,4.0,95,0.00,,---,0.00,VWS V12.08,2013-06-30 06:03:00,
2013-06-30 02:04:00,65.2,63.7,29.69,SW,223,3.0,4.0,95,0.00,,---,0.00,VWS V12.08,2013-06-30 06:04:00,
2013-06-30 02:05:00,65.2,63.7,29.69,SW,223,4.0,4.0,95,0.00,,---,0.00,VWS V12.08,2013-06-30 06:05:00,
2013-06-30 02:08:00,65.3,63.8,29.69,SW,223,4.0,5.0,95,0.00,,---,0.00,VWS V12.08,2013-06-30 06:08:00,
2013-06-30 02:09:00,65.3,63.8,29.69,SW,223,3.0,5.0,95,0.00,,---,0.00,VWS V12.08,2013-06-30 06:09:00,
2013-06-30 02:10:00,65.3,63.8,29.69,SW,223,3.0,5.0,95,0.00,,---,0.00,VWS V12.08,2013-06-30 06:10:00,
2013-06-30 02:13:00,65.3,63.8,29.69,SW,223,1.0,3.0,95,0.00,,---,0.00,VWS V12.08,2013-06-30 06:13:00,
2013-06-30 02:14:00,65.4,63.9,29.69,SW,223,1.0,3.0,95,0.00,,---,0.00,VWS V12.08,2013-06-30 06:14:00,
2013-06-30 02:15:00,65.3,63.8,29.69,SW,223,2.0,3.0,95,0.00,,---,0.00,VWS V12.08,2013-06-30 06:15:00,
2013-06-30 02:19:00,65.2,63.7,29.69,SW,223,4.0,4.0,95,0.00,,---,0.00,VWS V12.08,2013-06-30 06:19:00,
2013-06-30 02:20:00,65.1,63.6,29.69,SW,223,4.0,5.0,95,0.00,,---,0.00,VWS V12.08,2013-06-30 06:20:00,
2013-06-30 02:24:00,65.3,64.1,29.69,SW,223,4.0,6.0,96,0.00,,---,0.00,VWS V12.08,2013-06-30 06:24:00,
2013-06-30 02:25:00,65.3,64.1,29.69,SW,223,5.0,6.0,96,0.00,,---,0.00,VWS V12.08,2013-06-30 06:25:00,
2013-06-30 02:29:00,65.4,63.9,29.69,SW,223,2.0,6.0,95,0.00,,---,0.00,VWS V12.08,2013-06-30 06:29:00,
2013-06-30 02:30:00,65.4,63.9,29.69,SW,223,3.0,6.0,95,0.00,,---,0.00,VWS V12.08,2013-06-30 06:30:00,
2013-06-30 02:34:00,65.3,63.8,29.69,SW,223,3.0,3.0,95,0.00,,---,0.00,VWS V12.08,2013-06-30 06:34:00,
2013-06-30 02:35:00,65.3,63.8,29.69,SW,223,3.0,3.0,95,0.00,,---,0.00,VWS V12.08,2013-06-30 06:35:00,
2013-06-30 02:39:00,65.3,63.8,29.69,SW,223,2.0,4.0,95,0.00,,---,0.00,VWS V12.08,2013-06-30 06:39:00,
2013-06-30 02:40:00,65.3,63.8,29.69,SW,223,2.0,4.0,95,0.00,,---,0.00,VWS V12.08,2013-06-30 06:40:00,
2013-06-30 02:41:00,65.3,64.1,29.69,SW,223,1.0,4.0,96,0.00,,---,0.00,VWS V12.08,2013-06-30 06:41:00,
2013-06-30 02:44:00,65.3,64.1,29.69,SW,223,2.0,4.0,96,0.00,,---,0.00,VWS V12.08,2013-06-30 06:44:00,
2013-06-30 02:45:00,65.4,64.2,29.69,SW,223,3.0,4.0,96,0.00,,---,0.00,VWS V12.08,2013-06-30 06:45:00,
2013-06-30 02:46:00,65.4,64.2,29.69,SW,223,4.0,4.0,96,0.00,,---,0.00,VWS V12.08,2013-06-30 06:46:00,
2013-06-30 02:49:00,65.4,64.2,29.69,SW,223,4.0,4.0,96,0.00,,---,0.00,VWS V12.08,2013-06-30 06:49:00,
2013-06-30 02:50:00,65.4,64.2,29.69,SW,223,4.0,5.0,96,0.00,,---,0.00,VWS V12.08,2013-06-30 06:50:00,
2013-06-30 02:51:00,65.4,64.2,29.69,SW,223,3.0,5.0,96,0.00,,---,0.00,VWS V12.08,2013-06-30 06:51:00,
2013-06-30 02:54:00,65.6,64.4,29.69,SW,223,4.0,5.0,96,0.00,,---,0.00,VWS V12.08,2013-06-30 06:54:00,
2013-06-30 02:55:00,65.6,64.4,29.69,SW,223,4.0,5.0,96,0.00,,---,0.00,VWS V12.08,2013-06-30 06:55:00,
2013-06-30 02:56:00,65.6,64.4,29.69,SW,223,5.0,5.0,96,0.00,,---,0.00,VWS V12.08,2013-06-30 06:56:00,
2013-06-30 03:00:00,65.6,64.4,29.69,SW,223,3.0,5.0,96,0.00,,---,0.00,VWS V12.08,2013-06-30 07:00:00,
2013-06-30 03:01:00,65.6,64.4,29.69,SW,223,2.0,2.0,96,0.00,,---,0.00,VWS V12.08,2013-06-30 07:01:00,
2013-06-30 03:05:00,65.6,64.4,29.69,SW,223,3.0,4.0,96,0.00,,---,0.00,VWS V12.08,2013-06-30 07:05:00,
2013-06-30 03:06:00,65.7,64.5,29.69,SW,223,3.0,4.0,96,0.00,,---,0.00,VWS V12.08,2013-06-30 07:06:00,
2013-06-30 03:10:00,65.8,64.6,29.69,SW,223,3.0,5.0,96,0.00,,---,0.00,VWS V12.08,2013-06-30 07:10:00,
2013-06-30 03:11:00,65.7,64.5,29.69,SW,223,3.0,3.0,96,0.00,,---,0.00,VWS V12.08,2013-06-30 07:11:00,
2013-06-30 03:15:00,65.5,64.0,29.69,SW,223,2.0,3.0,95,0.00,,---,0.00,VWS V12.08,2013-06-30 07:15:00,
2013-06-30 03:16:00,65.4,63.9,29.68,SW,223,3.0,4.0,95,0.00,,---,0.00,VWS V12.08,2013-06-30 07:16:00,
2013-06-30 03:20:00,65.3,63.8,29.68,SW,223,2.0,4.0,95,0.00,,---,0.00,VWS V12.08,2013-06-30 07:20:00,
2013-06-30 03:21:00,65.3,63.8,29.68,SW,223,3.0,3.0,95,0.00,,---,0.00,VWS V12.08,2013-06-30 07:21:00,
2013-06-30 03:22:00,65.2,63.7,29.69,SW,223,2.0,3.0,95,0.00,,---,0.00,VWS V12.08,2013-06-30 07:22:00,
2013-06-30 03:25:00,65.2,64.0,29.68,SW,223,1.0,3.0,96,0.00,,---,0.00,VWS V12.08,2013-06-30 07:25:00,
2013-06-30 03:26:00,65.2,64.0,29.68,SW,223,1.0,3.0,96,0.00,,---,0.00,VWS V12.08,2013-06-30 07:26:00,
2013-06-30 03:27:00,65.1,63.9,29.69,SW,223,1.0,3.0,96,0.00,,---,0.00,VWS V12.08,2013-06-30 07:27:00,
2013-06-30 03:30:00,65.0,63.8,29.68,SW,223,1.0,4.0,96,0.00,,---,0.00,VWS V12.08,2013-06-30 07:30:00,
2013-06-30 03:31:00,65.0,63.8,29.68,SW,223,1.0,4.0,96,0.00,,---,0.00,VWS V12.08,2013-06-30 07:31:00,
2013-06-30 03:32:00,65.0,63.8,29.68,SW,223,1.0,2.0,96,0.00,,---,0.00,VWS V12.08,2013-06-30 07:32:00,
2013-06-30 03:35:00,64.9,63.7,29.68,SW,223,2.0,2.0,96,0.00,,---,0.00,VWS V12.08,2013-06-30 07:35:00,
2013-06-30 03:36:00,65.0,63.8,29.68,SW,223,2.0,2.0,96,0.00,,---,0.00,VWS V12.08,2013-06-30 07:36:00,
2013-06-30 03:37:00,65.0,63.8,29.68,SW,223,1.0,3.0,96,0.00,,---,0.00,VWS V12.08,2013-06-30 07:37:00,
2013-06-30 03:40:00,65.0,63.8,29.68,SW,223,1.0,3.0,96,0.00,,---,0.00,VWS V12.08,2013-06-30 07:40:00,
2013-06-30 03:41:00,64.9,63.7,29.68,SW,223,2.0,3.0,96,0.00,,---,0.00,VWS V12.08,2013-06-30 07:41:00,
2013-06-30 03:43:00,65.0,63.8,29.68,SW,223,3.0,3.0,96,0.00,,---,0.00,VWS V12.08,2013-06-30 07:43:00,
2013-06-30 03:45:00,64.9,63.7,29.68,SW,223,1.0,3.0,96,0.00,,---,0.00,VWS V12.08,2013-06-30 07:45:00,
2013-06-30 03:46:00,64.9,63.7,29.68,SW,223,2.0,3.0,96,0.00,,---,0.00,VWS V12.08,2013-06-30 07:46:00,
2013-06-30 03:47:00,64.9,63.7,29.68,SW,223,1.0,3.0,96,0.00,,---,0.00,VWS V12.08,2013-06-30 07:47:00,
2013-06-30 03:48:00,64.9,63.7,29.68,SW,223,1.0,3.0,96,0.00,,---,0.00,VWS V12.08,2013-06-30 07:48:00,
2013-06-30 03:50:00,64.8,63.6,29.69,SW,223,1.0,3.0,96,0.00,,---,0.00,VWS V12.08,2013-06-30 07:50:00,
2013-06-30 03:51:00,64.8,63.6,29.69,SW,223,2.0,3.0,96,0.00,,---,0.00,VWS V12.08,2013-06-30 07:51:00,
2013-06-30 03:52:00,64.8,63.3,29.69,SW,223,2.0,2.0,95,0.00,,---,0.00,VWS V12.08,2013-06-30 07:52:00,
2013-06-30 03:53:00,64.7,63.5,29.69,SW,223,3.0,3.0,96,0.00,,---,0.00,VWS V12.08,2013-06-30 07:53:00,
2013-06-30 03:56:00,64.7,63.5,29.69,SW,223,3.0,4.0,96,0.00,,---,0.00,VWS V12.08,2013-06-30 07:56:00,
2013-06-30 03:57:00,64.7,63.5,29.69,SW,223,2.0,4.0,96,0.00,,---,0.00,VWS V12.08,2013-06-30 07:57:00,
2013-06-30 03:58:00,64.7,63.5,29.69,SW,223,2.0,4.0,96,0.00,,---,0.00,VWS V12.08,2013-06-30 07:58:00,
2013-06-30 04:01:00,64.7,63.5,29.69,SW,223,5.0,5.0,96,0.00,,---,0.00,VWS V12.08,2013-06-30 08:01:00,
2013-06-30 04:02:00,64.8,63.6,29.69,SW,223,4.0,5.0,96,0.00,,---,0.00,VWS V12.08,2013-06-30 08:02:00,
2013-06-30 04:03:00,64.8,63.6,29.69,SW,223,4.0,5.0,96,0.00,,---,0.00,VWS V12.08,2013-06-30 08:03:00,
2013-06-30 04:06:00,64.9,63.7,29.69,SW,223,5.0,5.0,96,0.00,,---,0.00,VWS V12.08,2013-06-30 08:06:00,
2013-06-30 04:07:00,65.0,63.8,29.69,SW,223,5.0,6.0,96,0.00,,---,0.00,VWS V12.08,2013-06-30 08:07:00,
2013-06-30 04:08:00,65.0,63.8,29.69,SW,223,5.0,6.0,96,0.00,,---,0.00,VWS V12.08,2013-06-30 08:08:00,
2013-06-30 04:11:00,65.2,64.0,29.69,SW,223,4.0,5.0,96,0.00,,---,0.00,VWS V12.08,2013-06-30 08:11:00,
2013-06-30 04:12:00,65.2,64.0,29.69,SW,223,4.0,6.0,96,0.00,,---,0.00,VWS V12.08,2013-06-30 08:12:00,
2013-06-30 04:13:00,65.4,64.2,29.69,SW,223,3.0,6.0,96,0.00,,---,0.00,VWS V12.08,2013-06-30 08:13:00,
2013-06-30 04:16:00,65.6,64.4,29.69,SW,223,3.0,6.0,96,0.00,,---,0.00,VWS V12.08,2013-06-30 08:16:00,
2013-06-30 04:17:00,65.6,64.4,29.69,SW,223,5.0,6.0,96,0.00,,---,0.00,VWS V12.08,2013-06-30 08:17:00,
2013-06-30 04:18:00,65.6,64.4,29.69,SW,223,7.0,7.0,96,0.00,,---,0.00,VWS V12.08,2013-06-30 08:18:00,
2013-06-30 04:21:00,65.6,64.4,29.69,SW,223,5.0,5.0,96,0.00,,---,0.00,VWS V12.08,2013-06-30 08:21:00,
2013-06-30 04:22:00,65.6,64.4,29.69,SW,223,4.0,5.0,96,0.00,,---,0.00,VWS V12.08,2013-06-30 08:22:00,
2013-06-30 04:23:00,65.6,64.4,29.69,SW,223,6.0,6.0,96,0.00,,---,0.00,VWS V12.08,2013-06-30 08:23:00,
2013-06-30 04:26:00,65.6,64.4,29.69,SW,223,5.0,6.0,96,0.00,,---,0.00,VWS V12.08,2013-06-30 08:26:00,
2013-06-30 04:27:00,65.6,64.4,29.69,SW,223,5.0,6.0,96,0.00,,---,0.00,VWS V12.08,2013-06-30 08:27:00,
2013-06-30 04:28:00,65.4,64.2,29.69,SW,223,5.0,6.0,96,0.00,,---,0.00,VWS V12.08,2013-06-30 08:28:00,
2013-06-30 04:31:00,65.2,64.0,29.70,SW,223,5.0,5.0,96,0.00,,---,0.00,VWS V12.08,2013-06-30 08:31:00,
2013-06-30 04:32:00,65.2,64.0,29.70,SW,223,4.0,5.0,96,0.00,,---,0.00,VWS V12.08,2013-06-30 08:32:00,
2013-06-30 04:34:00,65.1,63.9,29.70,SW,223,3.0,5.0,96,0.00,,---,0.00,VWS V12.08,2013-06-30 08:34:00,
2013-06-30 04:36:00,65.0,63.8,29.70,SW,223,4.0,5.0,96,0.00,,---,0.00,VWS V12.08,2013-06-30 08:36:00,
2013-06-30 04:37:00,65.0,63.8,29.70,SW,223,4.0,5.0,96,0.00,,---,0.00,VWS V12.08,2013-06-30 08:37:00,
2013-06-30 04:38:00,65.0,63.8,29.70,SW,223,3.0,5.0,96,0.00,,---,0.00,VWS V12.08,2013-06-30 08:38:00,
2013-06-30 04:39:00,64.9,63.7,29.70,SW,223,3.0,5.0,96,0.00,,---,0.00,VWS V12.08,2013-06-30 08:39:00,
2013-06-30 04:41:00,64.9,63.7,29.70,SW,223,3.0,5.0,96,0.00,,---,0.00,VWS V12.08,2013-06-30 08:41:00,
2013-06-30 04:42:00,64.9,63.7,29.70,SW,223,4.0,5.0,96,0.00,,---,0.00,VWS V12.08,2013-06-30 08:42:00,
2013-06-30 04:43:00,64.9,63.7,29.70,SW,223,4.0,5.0,96,0.00,,---,0.00,VWS V12.08,2013-06-30 08:43:00,
2013-06-30 04:44:00,65.0,63.8,29.70,SW,223,4.0,6.0,96,0.00,,---,0.00,VWS V12.08,2013-06-30 08:44:00,
2013-06-30 04:47:00,65.1,63.9,29.70,SW,223,5.0,6.0,96,0.00,,---,0.00,VWS V12.08,2013-06-30 08:47:00,
2013-06-30 04:48:00,65.2,64.0,29.70,SW,223,5.0,6.0,96,0.00,,---,0.00,VWS V12.08,2013-06-30 08:48:00,
2013-06-30 04:49:00,65.3,64.1,29.69,SW,223,4.0,6.0,96,0.00,,---,0.00,VWS V12.08,2013-06-30 08:49:00,
2013-06-30 04:52:00,65.4,64.2,29.69,SW,223,5.0,6.0,96,0.00,,---,0.00,VWS V12.08,2013-06-30 08:52:00,
2013-06-30 04:53:00,65.3,64.1,29.69,SW,223,5.0,6.0,96,0.00,,---,0.00,VWS V12.08,2013-06-30 08:53:00,
2013-06-30 04:54:00,65.3,64.1,29.70,SW,224,4.0,7.0,96,0.00,,---,0.00,VWS V12.08,2013-06-30 08:54:00,
2013-06-30 04:57:00,65.1,63.9,29.70,SW,224,5.0,7.0,96,0.00,,---,0.00,VWS V12.08,2013-06-30 08:57:00,
2013-06-30 04:58:00,65.1,63.9,29.69,SW,224,4.0,7.0,96,0.00,,---,0.00,VWS V12.08,2013-06-30 08:58:00,
2013-06-30 05:00:00,64.9,63.7,29.69,SW,224,4.0,7.0,96,0.00,,---,0.00,VWS V12.08,2013-06-30 09:00:00,
2013-06-30 05:02:00,64.8,63.6,29.69,SW,224,5.0,5.0,96,0.00,,---,0.00,VWS V12.08,2013-06-30 09:02:00,
2013-06-30 05:03:00,64.8,63.6,29.70,SW,224,4.0,5.0,96,0.00,,---,0.00,VWS V12.08,2013-06-30 09:03:00,
2013-06-30 05:05:00,64.7,63.5,29.70,SW,224,4.0,5.0,96,0.00,,---,0.00,VWS V12.08,2013-06-30 09:05:00,
2013-06-30 05:07:00,64.7,63.5,29.70,SW,224,3.0,5.0,96,0.00,,---,0.00,VWS V12.08,2013-06-30 09:07:00,
2013-06-30 05:08:00,64.7,63.5,29.70,SW,224,3.0,6.0,96,0.00,,---,0.00,VWS V12.08,2013-06-30 09:08:00,
2013-06-30 05:09:00,64.8,63.6,29.70,SW,224,3.0,6.0,96,0.00,,---,0.00,VWS V12.08,2013-06-30 09:09:00,
2013-06-30 05:10:00,64.8,63.6,29.70,SW,224,3.0,6.0,96,0.00,,---,0.00,VWS V12.08,2013-06-30 09:10:00,
2013-06-30 05:12:00,64.8,63.6,29.70,SW,224,3.0,5.0,96,0.00,,---,0.00,VWS V12.08,2013-06-30 09:12:00,
2013-06-30 05:13:00,64.9,63.7,29.70,SW,224,3.0,5.0,96,0.00,,---,0.00,VWS V12.08,2013-06-30 09:13:00,
2013-06-30 05:14:00,64.9,63.7,29.70,SW,224,3.0,5.0,96,0.00,,---,0.00,VWS V12.08,2013-06-30 09:14:00,
2013-06-30 05:15:00,64.8,63.6,29.70,SW,224,3.0,5.0,96,0.00,,---,0.00,VWS V12.08,2013-06-30 09:15:00,
2013-06-30 05:17:00,64.8,63.6,29.70,SW,224,4.0,5.0,96,0.00,,---,0.00,VWS V12.08,2013-06-30 09:17:00,
2013-06-30 05:18:00,64.9,63.7,29.70,SW,224,4.0,5.0,96,0.00,,---,0.00,VWS V12.08,2013-06-30 09:18:00,
2013-06-30 05:19:00,64.9,63.7,29.70,SW,224,2.0,5.0,96,0.00,,---,0.00,VWS V12.08,2013-06-30 09:19:00,
2013-06-30 05:20:00,64.9,63.7,29.70,SW,224,5.0,5.0,96,0.00,,---,0.00,VWS V12.08,2013-06-30 09:20:00,
2013-06-30 05:22:00,65.0,63.8,29.70,SW,224,4.0,6.0,96,0.00,,---,0.00,VWS V12.08,2013-06-30 09:22:00,
2013-06-30 05:23:00,65.1,63.9,29.70,SW,224,4.0,6.0,96,0.00,,---,0.00,VWS V12.08,2013-06-30 09:23:00,
2013-06-30 05:24:00,65.1,64.2,29.70,SW,224,4.0,6.0,97,0.00,,---,0.00,VWS V12.08,2013-06-30 09:24:00,
2013-06-30 05:26:00,65.4,64.5,29.70,WSW,238,6.0,6.0,97,0.00,,---,0.00,VWS V12.08,2013-06-30 09:26:00,
2013-06-30 05:28:00,65.9,65.0,29.70,SW,217,3.0,7.0,97,0.00,,---,0.00,VWS V12.08,2013-06-30 09:28:00,
2013-06-30 05:29:00,65.9,65.0,29.70,SW,217,4.0,7.0,97,0.00,,---,0.00,VWS V12.08,2013-06-30 09:29:00,
2013-06-30 05:31:00,66.0,64.8,29.70,SW,217,5.0,7.0,96,0.00,,---,0.00,VWS V12.08,2013-06-30 09:31:00,
2013-06-30 05:33:00,65.8,64.6,29.70,SW,217,4.0,6.0,96,0.00,,---,0.00,VWS V12.08,2013-06-30 09:33:00,
2013-06-30 05:34:00,65.8,64.6,29.71,SW,217,3.0,7.0,96,0.00,,---,0.00,VWS V12.08,2013-06-30 09:34:00,
2013-06-30 05:36:00,65.6,64.4,29.71,SW,217,4.0,7.0,96,0.00,,---,0.00,VWS V12.08,2013-06-30 09:36:00,
2013-06-30 05:38:00,65.6,64.4,29.71,SW,218,5.0,7.0,96,0.00,,---,0.00,VWS V12.08,2013-06-30 09:38:00,
2013-06-30 05:39:00,65.6,64.4,29.71,SW,218,5.0,7.0,96,0.00,,---,0.00,VWS V12.08,2013-06-30 09:39:00,
2013-06-30 05:41:00,65.6,64.4,29.71,SW,218,5.0,5.0,96,0.00,,---,0.00,VWS V12.08,2013-06-30 09:41:00,
2013-06-30 05:43:00,65.5,64.3,29.71,SW,218,3.0,6.0,96,0.00,,---,0.00,VWS V12.08,2013-06-30 09:43:00,
2013-06-30 05:44:00,65.4,64.2,29.71,SW,218,5.0,6.0,96,0.00,,---,0.00,VWS V12.08,2013-06-30 09:44:00,
2013-06-30 05:46:00,65.4,64.2,29.71,SW,218,5.0,7.0,96,0.00,,---,0.00,VWS V12.08,2013-06-30 09:46:00,
2013-06-30 05:48:00,65.5,64.3,29.71,SW,218,4.0,7.0,96,0.00,,---,0.00,VWS V12.08,2013-06-30 09:48:00,
2013-06-30 05:49:00,65.6,64.4,29.71,SW,218,4.0,7.0,96,0.00,,---,0.00,VWS V12.08,2013-06-30 09:49:00,
2013-06-30 05:51:00,65.6,64.4,29.71,SW,218,4.0,5.0,96,0.00,,---,0.00,VWS V12.08,2013-06-30 09:51:00,
2013-06-30 05:53:00,65.6,64.4,29.71,SW,218,3.0,7.0,96,0.00,,---,0.00,VWS V12.08,2013-06-30 09:53:00,
2013-06-30 05:54:00,65.6,64.4,29.71,SW,218,3.0,7.0,96,0.00,,---,0.00,VWS V12.08,2013-06-30 09:54:00,
2013-06-30 05:55:00,65.7,64.5,29.71,SW,218,5.0,7.0,96,0.00,,---,0.00,VWS V12.08,2013-06-30 09:55:00,
2013-06-30 05:56:00,65.7,64.5,29.71,SW,218,3.0,7.0,96,0.00,,---,0.00,VWS V12.08,2013-06-30 09:56:00,
2013-06-30 05:58:00,65.7,64.5,29.71,SW,218,4.0,7.0,96,0.00,,---,0.00,VWS V12.08,2013-06-30 09:58:00,
2013-06-30 05:59:00,65.7,64.8,29.71,SW,218,5.0,7.0,97,0.00,,---,0.00,VWS V12.08,2013-06-30 09:59:00,
2013-06-30 06:00:00,65.7,64.8,29.72,SW,218,5.0,7.0,97,0.00,,---,0.00,VWS V12.08,2013-06-30 10:00:00,
2013-06-30 06:01:00,65.7,64.5,29.72,SW,218,6.0,6.0,96,0.00,,---,0.00,VWS V12.08,2013-06-30 10:01:00,
2013-06-30 06:03:00,65.5,64.3,29.72,SW,218,7.0,7.0,96,0.00,,---,0.00,VWS V12.08,2013-06-30 10:03:00,
2013-06-30 06:04:00,65.4,64.2,29.72,SW,218,6.0,7.0,96,0.00,,---,0.00,VWS V12.08,2013-06-30 10:04:00,
2013-06-30 06:05:00,65.4,64.2,29.72,SW,218,6.0,7.0,96,0.00,,---,0.00,VWS V12.08,2013-06-30 10:05:00,
2013-06-30 06:06:00,65.4,64.2,29.72,SSW,213,7.0,7.0,96,0.00,,---,0.00,VWS V12.08,2013-06-30 10:06:00,
2013-06-30 06:08:00,65.4,64.2,29.72,SSW,213,6.0,8.0,96,0.00,,---,0.00,VWS V12.08,2013-06-30 10:08:00,
2013-06-30 06:09:00,65.5,64.3,29.72,SSW,213,8.0,8.0,96,0.00,,---,0.00,VWS V12.08,2013-06-30 10:09:00,
2013-06-30 06:10:00,65.5,64.6,29.72,SSW,213,6.0,8.0,97,0.00,,---,0.00,VWS V12.08,2013-06-30 10:10:00,
2013-06-30 06:12:00,65.6,64.4,29.72,SSW,202,6.0,9.0,96,0.00,,---,0.00,VWS V12.08,2013-06-30 10:12:00,
2013-06-30 06:13:00,65.7,64.8,29.72,SSW,202,6.0,9.0,97,0.00,,---,0.00,VWS V12.08,2013-06-30 10:13:00,
2013-06-30 06:14:00,65.8,64.9,29.72,SSW,202,6.0,9.0,97,0.00,,---,0.00,VWS V12.08,2013-06-30 10:14:00,
2013-06-30 06:15:00,65.8,64.9,29.72,SSW,202,6.0,9.0,97,0.00,,---,0.00,VWS V12.08,2013-06-30 10:15:00,
2013-06-30 06:17:00,65.9,65.0,29.72,SSW,202,6.0,9.0,97,0.00,,---,0.00,VWS V12.08,2013-06-30 10:17:00,
2013-06-30 06:18:00,65.9,65.0,29.72,SSW,206,6.0,9.0,97,0.00,,---,0.00,VWS V12.08,2013-06-30 10:18:00,
2013-06-30 06:19:00,65.9,64.7,29.72,SSW,206,6.0,9.0,96,0.00,,---,0.00,VWS V12.08,2013-06-30 10:19:00,
2013-06-30 06:20:00,65.8,64.6,29.72,SSW,206,6.0,9.0,96,0.00,,---,0.00,VWS V12.08,2013-06-30 10:20:00,
2013-06-30 06:22:00,65.7,64.5,29.73,SSW,206,6.0,8.0,96,0.00,,---,0.00,VWS V12.08,2013-06-30 10:22:00,
2013-06-30 06:23:00,65.6,64.4,29.73,SSW,206,5.0,8.0,96,0.00,,---,0.00,VWS V12.08,2013-06-30 10:23:00,
2013-06-30 06:25:00,65.6,64.4,29.73,SSW,206,4.0,8.0,96,0.00,,---,0.00,VWS V12.08,2013-06-30 10:25:00,
2013-06-30 06:27:00,65.5,64.3,29.73,SSW,206,6.0,8.0,96,0.00,,---,0.00,VWS V12.08,2013-06-30 10:27:00,
2013-06-30 06:28:00,65.5,64.3,29.72,SSW,206,6.0,8.0,96,0.00,,---,0.00,VWS V12.08,2013-06-30 10:28:00,
2013-06-30 06:30:00,65.5,64.3,29.72,SSW,206,5.0,8.0,96,0.00,,---,0.00,VWS V12.08,2013-06-30 10:30:00,
2013-06-30 06:32:00,65.5,64.3,29.73,SSW,207,4.0,7.0,96,0.00,,---,0.00,VWS V12.08,2013-06-30 10:32:00,
2013-06-30 06:33:00,65.5,64.6,29.73,SSW,207,5.0,7.0,97,0.00,,---,0.00,VWS V12.08,2013-06-30 10:33:00,
2013-06-30 06:35:00,65.6,64.7,29.73,SSW,207,7.0,7.0,97,0.00,,---,0.00,VWS V12.08,2013-06-30 10:35:00,
2013-06-30 06:36:00,65.6,64.7,29.73,SSW,207,6.0,7.0,97,0.00,,---,0.00,VWS V12.08,2013-06-30 10:36:00,
2013-06-30 06:37:00,65.7,64.8,29.73,SSW,207,6.0,7.0,97,0.00,,---,0.00,VWS V12.08,2013-06-30 10:37:00,
2013-06-30 06:39:00,65.7,64.8,29.73,SSW,207,6.0,8.0,97,0.00,,---,0.00,VWS V12.08,2013-06-30 10:39:00,
2013-06-30 06:40:00,65.8,64.9,29.73,SSW,207,7.0,9.0,97,0.00,,---,0.00,VWS V12.08,2013-06-30 10:40:00,
2013-06-30 06:41:00,65.8,64.9,29.73,SSW,205,5.0,9.0,97,0.00,,---,0.00,VWS V12.08,2013-06-30 10:41:00,
2013-06-30 06:42:00,65.8,64.9,29.73,SSW,205,6.0,8.0,97,0.00,,---,0.00,VWS V12.08,2013-06-30 10:42:00,
2013-06-30 06:44:00,65.8,64.9,29.73,SSW,205,6.0,8.0,97,0.00,,---,0.00,VWS V12.08,2013-06-30 10:44:00,
2013-06-30 06:45:00,65.8,64.9,29.73,SSW,206,5.0,8.0,97,0.00,,---,0.00,VWS V12.08,2013-06-30 10:45:00,
2013-06-30 06:46:00,65.8,64.9,29.73,SSW,206,5.0,8.0,97,0.00,,---,0.00,VWS V12.08,2013-06-30 10:46:00,
2013-06-30 06:47:00,65.7,64.8,29.73,SSW,204,5.0,8.0,97,0.00,,---,0.00,VWS V12.08,2013-06-30 10:47:00,
2013-06-30 06:49:00,65.7,64.8,29.74,SSW,204,5.0,8.0,97,0.00,,---,0.00,VWS V12.08,2013-06-30 10:49:00,
2013-06-30 06:50:00,65.7,64.8,29.74,SSW,204,6.0,8.0,97,0.00,,---,0.00,VWS V12.08,2013-06-30 10:50:00,
2013-06-30 06:51:00,65.7,64.8,29.74,SSW,204,6.0,6.0,97,0.00,,---,0.00,VWS V12.08,2013-06-30 10:51:00,
2013-06-30 06:53:00,65.7,64.8,29.74,SSW,204,5.0,6.0,97,0.00,,---,0.00,VWS V12.08,2013-06-30 10:53:00,
2013-06-30 06:54:00,65.7,64.8,29.74,SSW,204,6.0,6.0,97,0.00,,---,0.00,VWS V12.08,2013-06-30 10:54:00,
2013-06-30 06:55:00,65.7,64.8,29.74,SSW,205,4.0,6.0,97,0.00,,---,0.00,VWS V12.08,2013-06-30 10:55:00,
2013-06-30 06:56:00,65.7,64.8,29.74,SSW,208,5.0,7.0,97,0.00,,---,0.00,VWS V12.08,2013-06-30 10:56:00,
2013-06-30 06:58:00,65.9,65.0,29.74,SW,225,7.0,7.0,97,0.00,,---,0.00,VWS V12.08,2013-06-30 10:58:00,
2013-06-30 07:00:00,66.1,65.2,29.74,SW,215,4.0,7.0,97,0.00,,---,0.00,VWS V12.08,2013-06-30 11:00:00,
2013-06-30 07:01:00,66.3,65.4,29.74,SW,215,5.0,7.0,97,0.00,,---,0.00,VWS V12.08,2013-06-30 11:01:00,
2013-06-30 07:03:00,66.6,65.7,29.74,SW,215,4.0,5.0,97,0.00,,---,0.00,VWS V12.08,2013-06-30 11:03:00,
2013-06-30 07:05:00,66.6,65.7,29.74,SW,215,2.0,5.0,97,0.00,,---,0.00,VWS V12.08,2013-06-30 11:05:00,
2013-06-30 07:06:00,66.6,65.7,29.74,SW,215,3.0,5.0,97,0.00,,---,0.00,VWS V12.08,2013-06-30 11:06:00,
2013-06-30 07:08:00,66.5,65.6,29.74,SW,215,3.0,5.0,97,0.00,,---,0.00,VWS V12.08,2013-06-30 11:08:00,
2013-06-30 07:10:00,66.5,65.6,29.75,SW,215,3.0,5.0,97,0.00,,---,0.00,VWS V12.08,2013-06-30 11:10:00,
2013-06-30 07:11:00,66.5,65.6,29.75,SW,215,4.0,5.0,97,0.00,,---,0.00,VWS V12.08,2013-06-30 11:11:00,
2013-06-30 07:13:00,66.3,65.1,29.75,SW,215,5.0,6.0,96,0.00,,---,0.00,VWS V12.08,2013-06-30 11:13:00,
2013-06-30 07:15:00,66.2,65.0,29.75,SW,215,3.0,6.0,96,0.00,,---,0.00,VWS V12.08,2013-06-30 11:15:00,
2013-06-30 07:16:00,66.2,65.3,29.75,SW,215,3.0,6.0,97,0.00,,---,0.00,VWS V12.08,2013-06-30 11:16:00,
2013-06-30 07:17:00,66.2,65.3,29.75,SW,215,3.0,6.0,97,0.00,,---,0.00,VWS V12.08,2013-06-30 11:17:00,
2013-06-30 07:18:00,66.3,65.4,29.74,SW,215,2.0,6.0,97,0.00,,---,0.00,VWS V12.08,2013-06-30 11:18:00,
2013-06-30 07:20:00,66.4,65.5,29.75,SW,215,4.0,6.0,97,0.00,,---,0.00,VWS V12.08,2013-06-30 11:20:00,
2013-06-30 07:21:00,66.5,65.6,29.75,SW,215,3.0,3.0,97,0.00,,---,0.00,VWS V12.08,2013-06-30 11:21:00,
2013-06-30 07:22:00,66.5,65.6,29.75,SW,215,4.0,4.0,97,0.00,,---,0.00,VWS V12.08,2013-06-30 11:22:00,
2013-06-30 07:23:00,66.7,65.8,29.75,SW,215,2.0,5.0,97,0.00,,---,0.00,VWS V12.08,2013-06-30 11:23:00,
2013-06-30 07:25:00,66.6,65.7,29.75,SW,215,3.0,5.0,97,0.00,,---,0.00,VWS V12.08,2013-06-30 11:25:00,
2013-06-30 07:26:00,66.5,65.6,29.75,SW,215,2.0,5.0,97,0.00,,---,0.00,VWS V12.08,2013-06-30 11:26:00,
2013-06-30 07:27:00,66.4,65.5,29.75,SW,215,3.0,5.0,97,0.00,,---,0.00,VWS V12.08,2013-06-30 11:27:00,
2013-06-30 07:28:00,66.4,65.5,29.75,SW,215,4.0,5.0,97,0.00,,---,0.00,VWS V12.08,2013-06-30 11:28:00,
2013-06-30 07:30:00,66.4,65.5,29.75,SW,215,2.0,5.0,97,0.00,,---,0.00,VWS V12.08,2013-06-30 11:30:00,
2013-06-30 07:31:00,66.4,65.5,29.75,SW,215,4.0,4.0,97,0.00,,---,0.00,VWS V12.08,2013-06-30 11:31:00,
2013-06-30 07:32:00,66.5,65.6,29.75,SW,215,3.0,4.0,97,0.00,,---,0.00,VWS V12.08,2013-06-30 11:32:00,
2013-06-30 07:34:00,66.5,65.6,29.75,SW,215,2.0,4.0,97,0.00,,---,0.00,VWS V12.08,2013-06-30 11:34:00,
2013-06-30 07:35:00,66.6,65.7,29.75,SW,215,3.0,4.0,97,0.00,,---,0.00,VWS V12.08,2013-06-30 11:35:00,
2013-06-30 07:36:00,66.6,65.7,29.75,SW,215,4.0,5.0,97,0.00,,---,0.00,VWS V12.08,2013-06-30 11:36:00,
2013-06-30 07:37:00,66.6,65.7,29.75,SW,215,4.0,5.0,97,0.00,,---,0.00,VWS V12.08,2013-06-30 11:37:00,
2013-06-30 07:38:00,66.6,65.7,29.75,SW,215,4.0,5.0,97,0.00,,---,0.00,VWS V12.08,2013-06-30 11:38:00,
2013-06-30 07:39:00,66.6,65.7,29.75,SW,215,4.0,5.0,97,0.00,,---,0.00,VWS V12.08,2013-06-30 11:39:00,
2013-06-30 07:41:00,66.7,65.8,29.75,SW,215,4.0,5.0,97,0.00,,---,0.00,VWS V12.08,2013-06-30 11:41:00,
2013-06-30 07:42:00,66.7,65.8,29.75,SW,215,4.0,5.0,97,0.00,,---,0.00,VWS V12.08,2013-06-30 11:42:00,
2013-06-30 07:43:00,66.7,65.8,29.75,SW,215,3.0,5.0,97,0.00,,---,0.00,VWS V12.08,2013-06-30 11:43:00,
2013-06-30 07:44:00,66.7,65.8,29.75,SW,215,3.0,5.0,97,0.00,,---,0.00,VWS V12.08,2013-06-30 11:44:00,
2013-06-30 07:46:00,66.8,65.9,29.75,SW,215,3.0,5.0,97,0.00,,---,0.00,VWS V12.08,2013-06-30 11:46:00,
2013-06-30 07:47:00,66.9,66.0,29.76,SW,215,4.0,5.0,97,0.00,,---,0.00,VWS V12.08,2013-06-30 11:47:00,
2013-06-30 07:48:00,67.0,66.1,29.76,SW,215,3.0,5.0,97,0.00,,---,0.00,VWS V12.08,2013-06-30 11:48:00,
2013-06-30 07:49:00,67.0,66.1,29.76,SW,215,4.0,5.0,97,0.00,,---,0.00,VWS V12.08,2013-06-30 11:49:00,
2013-06-30 07:51:00,67.0,66.1,29.76,SW,215,5.0,5.0,97,0.00,,---,0.00,VWS V12.08,2013-06-30 11:51:00,
2013-06-30 07:52:00,67.1,66.2,29.76,SW,215,3.0,5.0,97,0.00,,---,0.00,VWS V12.08,2013-06-30 11:52:00,
2013-06-30 07:53:00,67.1,66.2,29.76,SW,215,3.0,5.0,97,0.00,,---,0.00,VWS V12.08,2013-06-30 11:53:00,
2013-06-30 07:54:00,67.1,66.2,29.76,SW,215,3.0,6.0,97,0.00,,---,0.00,VWS V12.08,2013-06-30 11:54:00,
2013-06-30 07:56:00,67.2,66.3,29.76,SW,215,4.0,6.0,97,0.00,,---,0.00,VWS V12.08,2013-06-30 11:56:00,
2013-06-30 07:57:00,67.2,66.3,29.76,SW,215,5.0,6.0,97,0.00,,---,0.00,VWS V12.08,2013-06-30 11:57:00,
2013-06-30 07:58:00,67.2,66.3,29.76,SW,215,6.0,6.0,97,0.00,,---,0.00,VWS V12.08,2013-06-30 11:58:00,
2013-06-30 07:59:00,67.2,66.3,29.76,SW,215,6.0,7.0,97,0.00,,---,0.00,VWS V12.08,2013-06-30 11:59:00,
2013-06-30 08:01:00,67.2,66.3,29.76,SW,215,6.0,6.0,97,0.00,,---,0.00,VWS V12.08,2013-06-30 12:01:00,
2013-06-30 08:02:00,67.2,66.3,29.76,SW,215,5.0,6.0,97,0.00,,---,0.00,VWS V12.08,2013-06-30 12:02:00,
2013-06-30 08:03:00,67.1,66.2,29.76,SW,215,4.0,6.0,97,0.00,,---,0.00,VWS V12.08,2013-06-30 12:03:00,
2013-06-30 08:04:00,67.1,66.2,29.75,SW,215,5.0,6.0,97,0.00,,---,0.00,VWS V12.08,2013-06-30 12:04:00,
2013-06-30 08:07:00,67.0,66.1,29.75,SW,215,3.0,6.0,97,0.00,,---,0.00,VWS V12.08,2013-06-30 12:07:00,
2013-06-30 08:08:00,67.0,66.1,29.75,SW,215,2.0,6.0,97,0.00,,---,0.00,VWS V12.08,2013-06-30 12:08:00,
2013-06-30 08:09:00,67.1,66.2,29.75,SW,215,2.0,6.0,97,0.00,,---,0.00,VWS V12.08,2013-06-30 12:09:00,
2013-06-30 08:12:00,67.3,66.4,29.76,SW,215,3.0,4.0,97,0.00,,---,0.00,VWS V12.08,2013-06-30 12:12:00,
2013-06-30 08:13:00,67.3,66.4,29.75,SW,215,5.0,5.0,97,0.00,,---,0.00,VWS V12.08,2013-06-30 12:13:00,
2013-06-30 08:14:00,67.4,66.5,29.76,SW,215,3.0,5.0,97,0.00,,---,0.00,VWS V12.08,2013-06-30 12:14:00,
2013-06-30 08:15:00,67.5,66.6,29.75,SW,215,4.0,5.0,97,0.00,,---,0.00,VWS V12.08,2013-06-30 12:15:00,
2013-06-30 08:17:00,67.9,67.3,29.76,SW,215,4.0,6.0,98,0.00,,---,0.00,VWS V12.08,2013-06-30 12:17:00,
2013-06-30 08:18:00,68.0,67.4,29.76,SW,215,3.0,6.0,98,0.00,,---,0.00,VWS V12.08,2013-06-30 12:18:00,
2013-06-30 08:19:00,68.2,67.6,29.76,SW,215,1.0,6.0,98,0.00,,---,0.00,VWS V12.08,2013-06-30 12:19:00,
2013-06-30 08:20:00,68.5,67.9,29.76,SW,219,4.0,6.0,98,0.00,,---,0.00,VWS V12.08,2013-06-30 12:20:00,
2013-06-30 08:22:00,68.6,67.7,29.76,SW,217,4.0,6.0,97,0.00,,---,0.00,VWS V12.08,2013-06-30 12:22:00,
2013-06-30 08:23:00,68.6,67.7,29.75,SW,217,5.0,6.0,97,0.00,,---,0.00,VWS V12.08,2013-06-30 12:23:00,
2013-06-30 08:24:00,68.8,68.2,29.76,SW,217,3.0,6.0,98,0.00,,---,0.00,VWS V12.08,2013-06-30 12:24:00,
2013-06-30 08:25:00,68.9,68.3,29.76,SW,217,5.0,6.0,98,0.00,,---,0.00,VWS V12.08,2013-06-30 12:25:00,
2013-06-30 08:27:00,69.2,68.6,29.76,SW,217,2.0,7.0,98,0.00,,---,0.00,VWS V12.08,2013-06-30 12:27:00,
2013-06-30 08:28:00,69.2,68.6,29.76,SW,217,4.0,7.0,98,0.00,,---,0.00,VWS V12.08,2013-06-30 12:28:00,
2013-06-30 08:29:00,69.2,68.3,29.76,SW,217,3.0,7.0,97,0.00,,---,0.00,VWS V12.08,2013-06-30 12:29:00,
2013-06-30 08:30:00,69.2,68.3,29.76,SW,217,1.0,7.0,97,0.00,,---,0.00,VWS V12.08,2013-06-30 12:30:00,
2013-06-30 08:32:00,69.1,68.2,29.76,SW,217,3.0,3.0,97,0.00,,---,0.00,VWS V12.08,2013-06-30 12:32:00,
2013-06-30 08:33:00,69.0,68.1,29.76,SW,217,3.0,3.0,97,0.00,,---,0.00,VWS V12.08,2013-06-30 12:33:00,
2013-06-30 08:34:00,68.9,68.0,29.76,SW,217,3.0,4.0,97,0.00,,---,0.00,VWS V12.08,2013-06-30 12:34:00,
2013-06-30 08:36:00,68.9,68.0,29.76,SW,217,2.0,4.0,97,0.00,,---,0.00,VWS V12.08,2013-06-30 12:36:00,
2013-06-30 08:37:00,68.9,68.0,29.76,SW,217,4.0,5.0,97,0.00,,---,0.00,VWS V12.08,2013-06-30 12:37:00,
2013-06-30 08:38:00,68.8,67.9,29.76,SW,217,4.0,5.0,97,0.00,,---,0.00,VWS V12.08,2013-06-30 12:38:00,
2013-06-30 08:40:00,68.9,68.0,29.76,SW,217,5.0,6.0,97,0.00,,---,0.00,VWS V12.08,2013-06-30 12:40:00,
2013-06-30 08:41:00,68.9,68.0,29.76,SW,217,5.0,6.0,97,0.00,,---,0.00,VWS V12.08,2013-06-30 12:41:00,
2013-06-30 08:42:00,68.8,67.9,29.76,SW,217,3.0,6.0,97,0.00,,---,0.00,VWS V12.08,2013-06-30 12:42:00,
2013-06-30 08:43:00,68.8,67.9,29.76,SW,217,3.0,6.0,97,0.00,,---,0.00,VWS V12.08,2013-06-30 12:43:00,
2013-06-30 08:45:00,68.9,68.0,29.76,SW,217,5.0,6.0,97,0.00,,---,0.00,VWS V12.08,2013-06-30 12:45:00,
2013-06-30 08:46:00,69.0,68.1,29.76,SW,217,6.0,6.0,97,0.00,,---,0.00,VWS V12.08,2013-06-30 12:46:00,
2013-06-30 08:47:00,69.2,68.3,29.76,SW,225,4.0,6.0,97,0.00,,---,0.00,VWS V12.08,2013-06-30 12:47:00,
2013-06-30 08:48:00,69.3,68.4,29.76,SW,225,6.0,6.0,97,0.00,,---,0.00,VWS V12.08,2013-06-30 12:48:00,
2013-06-30 08:50:00,69.9,69.3,29.76,SSW,211,5.0,9.0,98,0.00,,---,0.00,VWS V12.08,2013-06-30 12:50:00,
2013-06-30 08:51:00,70.1,69.5,29.76,SW,223,7.0,7.0,98,0.00,,---,0.00,VWS V12.08,2013-06-30 12:51:00,
2013-06-30 08:53:00,70.3,69.7,29.76,SSW,209,11.0,11.0,98,0.00,,---,0.00,VWS V12.08,2013-06-30 12:53:00,
2013-06-30 08:54:00,70.4,69.8,29.76,SW,215,7.0,11.0,98,0.00,,---,0.00,VWS V12.08,2013-06-30 12:54:00,
2013-06-30 08:56:00,70.4,69.5,29.76,SSW,213,6.0,11.0,97,0.00,,---,0.00,VWS V12.08,2013-06-30 12:56:00,
2013-06-30 08:58:00,70.3,69.4,29.76,SSW,212,5.0,11.0,97,0.00,,---,0.00,VWS V12.08,2013-06-30 12:58:00,
2013-06-30 08:59:00,70.3,69.4,29.76,SW,215,4.0,11.0,97,0.00,,---,0.00,VWS V12.08,2013-06-30 12:59:00,
2013-06-30 09:01:00,70.3,69.4,29.77,SSW,209,7.0,7.0,97,0.00,,---,0.00,VWS V12.08,2013-06-30 13:01:00,
2013-06-30 09:03:00,70.3,69.4,29.77,SW,217,7.0,7.0,97,0.00,,---,0.00,VWS V12.08,2013-06-30 13:03:00,
2013-06-30 09:04:00,70.3,69.4,29.77,SSW,211,5.0,7.0,97,0.00,,---,0.00,VWS V12.08,2013-06-30 13:04:00,
2013-06-30 09:06:00,70.2,69.3,29.76,SSW,207,7.0,8.0,97,0.00,,---,0.00,VWS V12.08,2013-06-30 13:06:00,
2013-06-30 09:07:00,70.2,69.3,29.76,SSW,207,5.0,8.0,97,0.00,,---,0.00,VWS V12.08,2013-06-30 13:07:00,
2013-06-30 09:08:00,70.2,69.3,29.77,SW,216,5.0,9.0,97,0.00,,---,0.00,VWS V12.08,2013-06-30 13:08:00,
2013-06-30 09:09:00,70.1,69.2,29.77,SSW,210,4.0,9.0,97,0.00,,---,0.00,VWS V12.08,2013-06-30 13:09:00,
2013-06-30 09:11:00,70.1,69.2,29.76,SSW,210,6.0,6.0,97,0.00,,---,0.00,VWS V12.08,2013-06-30 13:11:00,
2013-06-30 09:12:00,70.1,69.2,29.76,SSW,210,3.0,6.0,97,0.00,,---,0.00,VWS V12.08,2013-06-30 13:12:00,
2013-06-30 09:13:00,70.1,69.2,29.76,SSW,210,5.0,6.0,97,0.00,,---,0.00,VWS V12.08,2013-06-30 13:13:00,
2013-06-30 09:14:00,70.1,69.2,29.76,SSW,210,5.0,6.0,97,0.00,,---,0.00,VWS V12.08,2013-06-30 13:14:00,
2013-06-30 09:16:00,70.0,69.1,29.76,SSW,210,5.0,6.0,97,0.00,,---,0.00,VWS V12.08,2013-06-30 13:16:00,
2013-06-30 09:17:00,69.9,69.0,29.76,SSW,210,4.0,6.0,97,0.00,,---,0.00,VWS V12.08,2013-06-30 13:17:00,
2013-06-30 09:18:00,69.8,68.6,29.76,SSW,210,6.0,7.0,96,0.00,,---,0.00,VWS V12.08,2013-06-30 13:18:00,
2013-06-30 09:19:00,69.8,68.6,29.76,SSW,210,6.0,7.0,96,0.00,,---,0.00,VWS V12.08,2013-06-30 13:19:00,
2013-06-30 09:20:00,69.7,68.8,29.76,SSW,209,7.0,7.0,97,0.00,,---,0.00,VWS V12.08,2013-06-30 13:20:00,
2013-06-30 09:22:00,69.5,68.3,29.76,SSW,209,7.0,8.0,96,0.00,,---,0.00,VWS V12.08,2013-06-30 13:22:00,
2013-06-30 09:24:00,69.4,68.2,29.76,SSW,193,9.0,10.0,96,0.00,,---,0.00,VWS V12.08,2013-06-30 13:24:00,
2013-06-30 09:25:00,69.5,68.3,29.76,SSW,194,10.0,11.0,96,0.00,,---,0.00,VWS V12.08,2013-06-30 13:25:00,
2013-06-30 09:27:00,69.5,68.3,29.77,SSW,200,11.0,12.0,96,0.00,,---,0.00,VWS V12.08,2013-06-30 13:27:00,
2013-06-30 09:29:00,69.8,68.9,29.77,SSW,210,11.0,12.0,97,0.00,,---,0.00,VWS V12.08,2013-06-30 13:29:00,
2013-06-30 09:30:00,69.9,69.0,29.77,SSW,209,7.0,12.0,97,0.00,,---,0.00,VWS V12.08,2013-06-30 13:30:00,
2013-06-30 09:32:00,70.0,68.8,29.77,SSW,207,9.0,11.0,96,0.00,,---,0.00,VWS V12.08,2013-06-30 13:32:00,
2013-06-30 09:34:00,70.0,68.8,29.77,SSW,198,10.0,11.0,96,0.00,,---,0.00,VWS V12.08,2013-06-30 13:34:00,
2013-06-30 09:35:00,70.0,68.8,29.77,SW,235,5.0,11.0,96,0.00,,---,0.00,VWS V12.08,2013-06-30 13:35:00,
2013-06-30 09:37:00,70.1,68.9,29.77,SSW,207,7.0,11.0,96,0.00,,---,0.00,VWS V12.08,2013-06-30 13:37:00,
2013-06-30 09:38:00,70.2,69.0,29.77,SSW,207,4.0,11.0,96,0.00,,---,0.00,VWS V12.08,2013-06-30 13:38:00,
2013-06-30 09:39:00,70.3,69.1,29.77,SSW,209,5.0,11.0,96,0.00,,---,0.00,VWS V12.08,2013-06-30 13:39:00,
2013-06-30 09:40:00,70.3,69.1,29.77,SW,214,6.0,11.0,96,0.00,,---,0.00,VWS V12.08,2013-06-30 13:40:00,
2013-06-30 09:42:00,70.2,69.0,29.77,SW,219,7.0,10.0,96,0.00,,---,0.00,VWS V12.08,2013-06-30 13:42:00,
2013-06-30 09:43:00,70.2,69.0,29.77,SSW,211,7.0,10.0,96,0.00,,---,0.00,VWS V12.08,2013-06-30 13:43:00,
2013-06-30 09:44:00,70.2,69.0,29.77,SSW,212,7.0,10.0,96,0.00,,---,0.00,VWS V12.08,2013-06-30 13:44:00,
2013-06-30 09:45:00,70.2,69.0,29.77,SSW,208,9.0,11.0,96,0.00,,---,0.00,VWS V12.08,2013-06-30 13:45:00,
2013-06-30 09:47:00,70.3,69.1,29.77,SSW,209,6.0,11.0,96,0.00,,---,0.00,VWS V12.08,2013-06-30 13:47:00,
2013-06-30 09:48:00,70.3,69.1,29.77,SSW,202,9.0,11.0,96,0.00,,---,0.00,VWS V12.08,2013-06-30 13:48:00,
2013-06-30 09:49:00,70.4,69.2,29.77,SSW,205,9.0,11.0,96,0.00,,---,0.00,VWS V12.08,2013-06-30 13:49:00,
2013-06-30 09:50:00,70.4,69.2,29.77,SSW,205,7.0,11.0,96,0.00,,---,0.00,VWS V12.08,2013-06-30 13:50:00,
2013-06-30 09:52:00,70.5,69.3,29.77,SW,219,9.0,11.0,96,0.00,,---,0.00,VWS V12.08,2013-06-30 13:52:00,
2013-06-30 09:53:00,70.5,69.3,29.77,SSW,205,7.0,11.0,96,0.00,,---,0.00,VWS V12.08,2013-06-30 13:53:00,
2013-06-30 09:54:00,70.5,69.3,29.77,SW,217,9.0,11.0,96,0.00,,---,0.00,VWS V12.08,2013-06-30 13:54:00,
2013-06-30 09:55:00,70.5,69.3,29.77,SSW,209,6.0,11.0,96,0.00,,---,0.00,VWS V12.08,2013-06-30 13:55:00,
2013-06-30 09:57:00,70.5,69.3,29.77,SW,234,7.0,11.0,96,0.00,,---,0.00,VWS V12.08,2013-06-30 13:57:00,
2013-06-30 09:58:00,70.5,69.3,29.77,SW,223,7.0,11.0,96,0.00,,---,0.00,VWS V12.08,2013-06-30 13:58:00,
2013-06-30 09:59:00,70.6,69.4,29.77,SSW,204,9.0,11.0,96,0.00,,---,0.00,VWS V12.08,2013-06-30 13:59:00,
2013-06-30 10:00:00,70.6,69.4,29.77,SSW,204,7.0,11.0,96,0.00,,---,0.00,VWS V12.08,2013-06-30 14:00:00,
2013-06-30 10:03:00,70.7,69.5,29.77,SSW,205,7.0,11.0,96,0.00,,---,0.00,VWS V12.08,2013-06-30 14:03:00,
2013-06-30 10:04:00,70.7,69.2,29.77,SW,214,8.0,11.0,95,0.00,,---,0.00,VWS V12.08,2013-06-30 14:04:00,
2013-06-30 10:05:00,70.7,69.2,29.77,SW,214,6.0,11.0,95,0.00,,---,0.00,VWS V12.08,2013-06-30 14:05:00,
2013-06-30 10:06:00,70.6,69.1,29.77,SW,223,6.0,11.0,95,0.00,,---,0.00,VWS V12.08,2013-06-30 14:06:00,
2013-06-30 10:08:00,70.6,69.1,29.77,SSW,207,8.0,11.0,95,0.00,,---,0.00,VWS V12.08,2013-06-30 14:08:00,
2013-06-30 10:09:00,70.6,69.1,29.77,SW,217,10.0,11.0,95,0.00,,---,0.00,VWS V12.08,2013-06-30 14:09:00,
2013-06-30 10:10:00,70.5,69.0,29.77,SW,219,9.0,11.0,95,0.00,,---,0.00,VWS V12.08,2013-06-30 14:10:00,
2013-06-30 10:11:00,70.4,68.9,29.77,SSW,209,6.0,6.0,95,0.00,,---,0.00,VWS V12.08,2013-06-30 14:11:00,
2013-06-30 10:13:00,70.4,68.9,29.77,SSW,211,5.0,9.0,95,0.00,,---,0.00,VWS V12.08,2013-06-30 14:13:00,
2013-06-30 10:14:00,70.3,68.8,29.77,SSW,205,6.0,10.0,95,0.00,,---,0.00,VWS V12.08,2013-06-30 14:14:00,
2013-06-30 10:15:00,70.3,68.8,29.77,SSW,209,7.0,10.0,95,0.00,,---,0.00,VWS V12.08,2013-06-30 14:15:00,
2013-06-30 10:16:00,70.3,68.8,29.77,SW,219,4.0,10.0,95,0.00,,---,0.00,VWS V12.08,2013-06-30 14:16:00,
2013-06-30 10:18:00,70.2,68.7,29.77,SSW,213,6.0,10.0,95,0.00,,---,0.00,VWS V12.08,2013-06-30 14:18:00,
2013-06-30 10:19:00,70.2,68.7,29.77,SSW,213,6.0,10.0,95,0.00,,---,0.00,VWS V12.08,2013-06-30 14:19:00,
2013-06-30 10:20:00,70.2,68.7,29.77,SSW,213,6.0,10.0,95,0.00,,---,0.00,VWS V12.08,2013-06-30 14:20:00,
2013-06-30 10:21:00,70.1,68.6,29.77,SSW,213,5.0,5.0,95,0.00,,---,0.00,VWS V12.08,2013-06-30 14:21:00,
2013-06-30 10:23:00,70.1,68.6,29.77,SSW,213,4.0,5.0,95,0.00,,---,0.00,VWS V12.08,2013-06-30 14:23:00,
2013-06-30 10:24:00,70.1,68.6,29.77,SSW,213,4.0,6.0,95,0.00,,---,0.00,VWS V12.08,2013-06-30 14:24:00,
2013-06-30 10:25:00,70.0,68.5,29.77,SSW,213,5.0,6.0,95,0.00,,---,0.00,VWS V12.08,2013-06-30 14:25:00,
2013-06-30 10:26:00,70.1,68.6,29.77,SSW,213,4.0,6.0,95,0.00,,---,0.00,VWS V12.08,2013-06-30 14:26:00,
2013-06-30 10:28:00,70.1,68.6,29.77,SSW,213,5.0,6.0,95,0.00,,---,0.00,VWS V12.08,2013-06-30 14:28:00,
2013-06-30 10:29:00,70.1,68.6,29.77,SSW,213,4.0,6.0,95,0.00,,---,0.00,VWS V12.08,2013-06-30 14:29:00,
2013-06-30 10:30:00,70.1,68.6,29.77,SSW,213,4.0,6.0,95,0.00,,---,0.00,VWS V12.08,2013-06-30 14:30:00,
2013-06-30 10:31:00,70.2,68.7,29.77,SSW,213,5.0,6.0,95,0.00,,---,0.00,VWS V12.08,2013-06-30 14:31:00,
2013-06-30 10:33:00,70.2,68.7,29.77,SSW,213,3.0,6.0,95,0.00,,---,0.00,VWS V12.08,2013-06-30 14:33:00,
2013-06-30 10:35:00,70.1,68.6,29.77,SSW,213,6.0,6.0,95,0.00,,---,0.00,VWS V12.08,2013-06-30 14:35:00,
2013-06-30 10:36:00,70.0,68.5,29.77,SSW,213,6.0,6.0,95,0.00,,---,0.00,VWS V12.08,2013-06-30 14:36:00,
2013-06-30 10:38:00,70.0,68.5,29.77,SSW,213,4.0,7.0,95,0.00,,---,0.00,VWS V12.08,2013-06-30 14:38:00,
2013-06-30 10:40:00,69.9,68.1,29.77,SSW,213,6.0,7.0,94,0.00,,---,0.00,VWS V12.08,2013-06-30 14:40:00,
2013-06-30 10:41:00,69.8,68.0,29.77,SSW,194,6.0,9.0,94,0.00,,---,0.00,VWS V12.08,2013-06-30 14:41:00,
2013-06-30 10:43:00,69.8,68.3,29.77,SSW,194,7.0,9.0,95,0.00,,---,0.00,VWS V12.08,2013-06-30 14:43:00,
2013-06-30 10:45:00,70.0,68.5,29.77,SSW,194,3.0,9.0,95,0.00,,---,0.00,VWS V12.08,2013-06-30 14:45:00,
2013-06-30 10:46:00,70.1,68.6,29.77,SSW,195,5.0,9.0,95,0.00,,---,0.00,VWS V12.08,2013-06-30 14:46:00,
2013-06-30 10:47:00,70.1,68.6,29.77,SSW,194,4.0,9.0,95,0.00,,---,0.00,VWS V12.08,2013-06-30 14:47:00,
2013-06-30 10:48:00,70.1,68.6,29.77,SSW,195,5.0,9.0,95,0.00,,---,0.00,VWS V12.08,2013-06-30 14:48:00,
2013-06-30 10:50:00,70.2,68.7,29.77,SSW,194,4.0,9.0,95,0.00,,---,0.00,VWS V12.08,2013-06-30 14:50:00,
2013-06-30 10:51:00,70.2,68.7,29.77,SSW,194,3.0,5.0,95,0.00,,---,0.00,VWS V12.08,2013-06-30 14:51:00,
2013-06-30 10:52:00,70.2,68.7,29.77,SSW,195,3.0,5.0,95,0.00,,---,0.00,VWS V12.08,2013-06-30 14:52:00,
2013-06-30 10:53:00,70.2,68.7,29.77,SSW,194,3.0,5.0,95,0.00,,---,0.00,VWS V12.08,2013-06-30 14:53:00,
2013-06-30 10:55:00,70.2,68.7,29.77,SSW,194,4.0,5.0,95,0.00,,---,0.00,VWS V12.08,2013-06-30 14:55:00,
2013-06-30 10:56:00,70.1,68.6,29.78,SSW,195,5.0,6.0,95,0.00,,---,0.00,VWS V12.08,2013-06-30 14:56:00,
2013-06-30 10:57:00,70.1,68.6,29.78,SSW,194,4.0,6.0,95,0.00,,---,0.00,VWS V12.08,2013-06-30 14:57:00,
2013-06-30 10:58:00,70.1,68.3,29.77,SSW,194,6.0,7.0,94,0.00,,---,0.00,VWS V12.08,2013-06-30 14:58:00,
2013-06-30 11:00:00,70.0,68.2,29.78,SSW,194,7.0,8.0,94,0.00,,---,0.00,VWS V12.08,2013-06-30 15:00:00,
2013-06-30 11:01:00,70.0,68.2,29.78,SSW,194,9.0,9.0,94,0.00,,---,0.00,VWS V12.08,2013-06-30 15:01:00,
2013-06-30 11:02:00,70.0,68.2,29.78,SSW,194,7.0,9.0,94,0.00,,---,0.00,VWS V12.08,2013-06-30 15:02:00,
2013-06-30 11:03:00,69.9,68.1,29.78,South,187,5.0,9.0,94,0.00,,---,0.00,VWS V12.08,2013-06-30 15:03:00,
2013-06-30 11:05:00,69.8,68.0,29.78,South,187,5.0,9.0,94,0.00,,---,0.00,VWS V12.08,2013-06-30 15:05:00,
2013-06-30 11:06:00,69.8,68.0,29.78,South,187,5.0,9.0,94,0.00,,---,0.00,VWS V12.08,2013-06-30 15:06:00,
2013-06-30 11:07:00,69.7,67.9,29.78,South,187,5.0,9.0,94,0.00,,---,0.00,VWS V12.08,2013-06-30 15:07:00,
2013-06-30 11:08:00,69.7,67.9,29.78,South,187,6.0,9.0,94,0.00,,---,0.00,VWS V12.08,2013-06-30 15:08:00,
2013-06-30 11:10:00,69.6,67.8,29.78,South,187,5.0,9.0,94,0.00,,---,0.00,VWS V12.08,2013-06-30 15:10:00,
2013-06-30 11:11:00,69.5,67.7,29.78,South,187,7.0,9.0,94,0.00,,---,0.00,VWS V12.08,2013-06-30 15:11:00,
2013-06-30 11:12:00,69.5,67.7,29.78,South,187,4.0,7.0,94,0.00,,---,0.00,VWS V12.08,2013-06-30 15:12:00,
2013-06-30 11:14:00,69.5,68.0,29.78,South,187,6.0,7.0,95,0.00,,---,0.00,VWS V12.08,2013-06-30 15:14:00,
2013-06-30 11:15:00,69.5,68.0,29.78,South,187,6.0,7.0,95,0.00,,---,0.00,VWS V12.08,2013-06-30 15:15:00,
2013-06-30 11:16:00,69.5,68.0,29.78,South,187,6.0,7.0,95,0.00,,---,0.00,VWS V12.08,2013-06-30 15:16:00,
2013-06-30 11:17:00,69.6,68.1,29.78,South,187,6.0,7.0,95,0.00,,---,0.00,VWS V12.08,2013-06-30 15:17:00,
2013-06-30 11:19:00,69.6,68.1,29.78,South,187,5.0,7.0,95,0.00,,---,0.00,VWS V12.08,2013-06-30 15:19:00,
2013-06-30 11:21:00,69.7,68.2,29.78,South,187,5.0,7.0,95,0.00,,---,0.00,VWS V12.08,2013-06-30 15:21:00,
2013-06-30 11:22:00,69.8,68.3,29.78,South,187,4.0,5.0,95,0.01,,---,0.01,VWS V12.08,2013-06-30 15:22:00,
2013-06-30 11:24:00,69.8,68.3,29.78,South,187,5.0,5.0,95,0.01,,---,0.01,VWS V12.08,2013-06-30 15:24:00,
2013-06-30 11:26:00,69.9,68.4,29.78,South,187,6.0,6.0,95,0.01,,---,0.01,VWS V12.08,2013-06-30 15:26:00,
2013-06-30 11:27:00,69.9,68.4,29.78,South,187,6.0,7.0,95,0.01,,---,0.01,VWS V12.08,2013-06-30 15:27:00,
2013-06-30 11:29:00,70.0,68.5,29.78,South,187,7.0,7.0,95,0.01,,---,0.01,VWS V12.08,2013-06-30 15:29:00,
2013-06-30 11:31:00,70.0,68.5,29.77,South,187,6.0,7.0,95,0.02,,---,0.02,VWS V12.08,2013-06-30 15:31:00,
2013-06-30 11:32:00,70.1,68.6,29.77,South,187,6.0,7.0,95,0.02,,---,0.02,VWS V12.08,2013-06-30 15:32:00,
2013-06-30 11:34:00,70.2,68.7,29.77,South,187,4.0,7.0,95,0.02,,---,0.02,VWS V12.08,2013-06-30 15:34:00,
2013-06-30 11:36:00,70.3,68.8,29.77,South,187,5.0,7.0,95,0.02,,---,0.02,VWS V12.08,2013-06-30 15:36:00,
2013-06-30 11:37:00,70.4,68.9,29.77,South,187,5.0,7.0,95,0.02,,---,0.02,VWS V12.08,2013-06-30 15:37:00,
2013-06-30 11:39:00,70.6,69.1,29.77,South,187,6.0,7.0,95,0.02,,---,0.02,VWS V12.08,2013-06-30 15:39:00,
2013-06-30 11:41:00,70.7,69.2,29.77,South,187,6.0,6.0,95,0.02,,---,0.02,VWS V12.08,2013-06-30 15:41:00,
2013-06-30 11:42:00,70.6,69.1,29.78,South,187,5.0,8.0,95,0.02,,---,0.02,VWS V12.08,2013-06-30 15:42:00,
2013-06-30 11:44:00,70.6,69.1,29.77,South,187,7.0,8.0,95,0.02,,---,0.02,VWS V12.08,2013-06-30 15:44:00,
2013-06-30 11:46:00,70.6,69.1,29.77,South,187,7.0,8.0,95,0.02,,---,0.02,VWS V12.08,2013-06-30 15:46:00,
2013-06-30 11:48:00,70.6,69.1,29.77,South,187,6.0,8.0,95,0.02,,---,0.02,VWS V12.08,2013-06-30 15:48:00,
2013-06-30 11:49:00,70.5,69.0,29.78,South,187,6.0,8.0,95,0.02,,---,0.02,VWS V12.08,2013-06-30 15:49:00,
2013-06-30 11:51:00,70.4,68.9,29.77,South,187,4.0,4.0,95,0.02,,---,0.02,VWS V12.08,2013-06-30 15:51:00,
2013-06-30 11:53:00,70.4,68.9,29.77,South,187,3.0,5.0,95,0.02,,---,0.02,VWS V12.08,2013-06-30 15:53:00,
2013-06-30 11:54:00,70.3,68.8,29.77,South,187,5.0,6.0,95,0.02,,---,0.02,VWS V12.08,2013-06-30 15:54:00,
2013-06-30 11:56:00,70.2,68.7,29.77,South,187,4.0,6.0,95,0.02,,---,0.02,VWS V12.08,2013-06-30 15:56:00,
2013-06-30 11:58:00,70.1,68.6,29.77,South,187,5.0,7.0,95,0.02,,---,0.02,VWS V12.08,2013-06-30 15:58:00,
2013-06-30 11:59:00,70.1,68.6,29.77,South,187,6.0,7.0,95,0.02,,---,0.02,VWS V12.08,2013-06-30 15:59:00,
2013-06-30 12:01:00,70.1,68.6,29.77,South,187,6.0,6.0,95,0.02,,---,0.02,VWS V12.08,2013-06-30 16:01:00,
2013-06-30 12:03:00,70.0,68.5,29.77,South,187,6.0,7.0,95,0.02,,---,0.02,VWS V12.08,2013-06-30 16:03:00,
2013-06-30 12:04:00,70.0,68.5,29.77,South,187,8.0,9.0,95,0.02,,---,0.02,VWS V12.08,2013-06-30 16:04:00,
2013-06-30 12:06:00,70.1,68.6,29.77,South,187,7.0,9.0,95,0.02,,---,0.02,VWS V12.08,2013-06-30 16:06:00,
2013-06-30 12:08:00,70.2,68.7,29.77,South,187,7.0,9.0,95,0.02,,---,0.02,VWS V12.08,2013-06-30 16:08:00,
2013-06-30 12:09:00,70.3,68.8,29.77,South,187,6.0,9.0,95,0.02,,---,0.02,VWS V12.08,2013-06-30 16:09:00,
2013-06-30 12:11:00,70.4,68.9,29.77,South,187,6.0,7.0,95,0.02,,---,0.02,VWS V12.08,2013-06-30 16:11:00,
2013-06-30 12:12:00,70.4,68.9,29.77,South,187,6.0,7.0,95,0.02,,---,0.02,VWS V12.08,2013-06-30 16:12:00,
2013-06-30 12:13:00,70.4,68.9,29.77,South,187,6.0,9.0,95,0.02,,---,0.02,VWS V12.08,2013-06-30 16:13:00,
2013-06-30 12:14:00,70.2,68.7,29.77,South,187,3.0,9.0,95,0.02,,---,0.02,VWS V12.08,2013-06-30 16:14:00,
2013-06-30 12:17:00,69.9,68.4,29.77,South,189,9.0,10.0,95,0.02,,---,0.02,VWS V12.08,2013-06-30 16:17:00,
2013-06-30 12:18:00,69.9,68.4,29.77,South,191,9.0,10.0,95,0.02,,---,0.02,VWS V12.08,2013-06-30 16:18:00,
2013-06-30 12:19:00,69.9,68.4,29.77,South,191,9.0,10.0,95,0.02,,---,0.02,VWS V12.08,2013-06-30 16:19:00,
2013-06-30 12:22:00,69.7,68.2,29.77,South,190,10.0,11.0,95,0.01,,---,0.02,VWS V12.08,2013-06-30 16:22:00,
2013-06-30 12:23:00,69.6,68.1,29.77,South,188,9.0,11.0,95,0.01,,---,0.02,VWS V12.08,2013-06-30 16:23:00,
2013-06-30 12:24:00,69.6,68.1,29.77,South,188,11.0,11.0,95,0.01,,---,0.02,VWS V12.08,2013-06-30 16:24:00,
2013-06-30 12:27:00,69.7,68.2,29.77,South,189,11.0,11.0,95,0.01,,---,0.02,VWS V12.08,2013-06-30 16:27:00,
2013-06-30 12:28:00,69.8,68.6,29.77,SSW,196,10.0,11.0,96,0.01,,---,0.02,VWS V12.08,2013-06-30 16:28:00,
2013-06-30 12:29:00,69.9,68.7,29.77,SSW,198,11.0,11.0,96,0.01,,---,0.02,VWS V12.08,2013-06-30 16:29:00,
2013-06-30 12:32:00,70.1,68.6,29.78,South,186,11.0,12.0,95,0.00,,---,0.02,VWS V12.08,2013-06-30 16:32:00,
2013-06-30 12:33:00,70.1,68.6,29.78,South,188,12.0,14.0,95,0.00,,---,0.02,VWS V12.08,2013-06-30 16:33:00,
2013-06-30 12:34:00,70.2,69.0,29.78,South,190,12.0,14.0,96,0.00,,---,0.02,VWS V12.08,2013-06-30 16:34:00,
2013-06-30 12:35:00,70.2,69.0,29.78,South,190,10.0,14.0,96,0.00,,---,0.02,VWS V12.08,2013-06-30 16:35:00,
2013-06-30 12:37:00,70.3,69.1,29.77,South,191,13.0,14.0,96,0.00,,---,0.02,VWS V12.08,2013-06-30 16:37:00,
2013-06-30 12:38:00,70.3,69.1,29.77,South,190,11.0,14.0,96,0.00,,---,0.02,VWS V12.08,2013-06-30 16:38:00,
2013-06-30 12:39:00,70.3,69.1,29.77,South,182,11.0,14.0,96,0.00,,---,0.02,VWS V12.08,2013-06-30 16:39:00,
2013-06-30 12:40:00,70.3,69.1,29.77,South,190,10.0,14.0,96,0.00,,---,0.02,VWS V12.08,2013-06-30 16:40:00,
2013-06-30 12:42:00,70.2,68.7,29.77,SSW,192,10.0,13.0,95,0.00,,---,0.02,VWS V12.08,2013-06-30 16:42:00,
2013-06-30 12:43:00,70.2,68.7,29.77,South,186,13.0,14.0,95,0.00,,---,0.02,VWS V12.08,2013-06-30 16:43:00,
2013-06-30 12:44:00,70.1,68.6,29.77,SSW,194,12.0,14.0,95,0.00,,---,0.02,VWS V12.08,2013-06-30 16:44:00,
2013-06-30 12:45:00,70.2,69.0,29.77,South,185,13.0,14.0,96,0.00,,---,0.02,VWS V12.08,2013-06-30 16:45:00,
2013-06-30 12:47:00,70.2,69.0,29.77,SSW,203,9.0,14.0,96,0.00,,---,0.02,VWS V12.08,2013-06-30 16:47:00,
2013-06-30 12:48:00,70.3,69.1,29.77,SSW,202,7.0,14.0,96,0.00,,---,0.02,VWS V12.08,2013-06-30 16:48:00,
2013-06-30 12:49:00,70.3,69.1,29.78,SW,220,7.0,14.0,96,0.00,,---,0.02,VWS V12.08,2013-06-30 16:49:00,
2013-06-30 12:50:00,70.3,69.1,29.78,SW,220,6.0,14.0,96,0.00,,---,0.02,VWS V12.08,2013-06-30 16:50:00,
2013-06-30 12:52:00,70.3,69.1,29.77,SW,214,5.0,7.0,96,0.00,,---,0.02,VWS V12.08,2013-06-30 16:52:00,
2013-06-30 12:53:00,70.4,69.2,29.77,SW,214,6.0,7.0,96,0.00,,---,0.02,VWS V12.08,2013-06-30 16:53:00,
2013-06-30 12:54:00,70.5,69.3,29.77,SSW,203,6.0,10.0,96,0.00,,---,0.02,VWS V12.08,2013-06-30 16:54:00,
2013-06-30 12:55:00,70.5,69.3,29.77,SSW,203,6.0,10.0,96,0.00,,---,0.02,VWS V12.08,2013-06-30 16:55:00,
2013-06-30 12:56:00,70.5,69.3,29.77,SSW,205,6.0,10.0,96,0.00,,---,0.02,VWS V12.08,2013-06-30 16:56:00,
2013-06-30 12:58:00,70.5,69.3,29.77,SSW,205,6.0,11.0,96,0.00,,---,0.02,VWS V12.08,2013-06-30 16:58:00,
2013-06-30 12:59:00,70.5,69.3,29.77,SSW,213,9.0,11.0,96,0.00,,---,0.02,VWS V12.08,2013-06-30 16:59:00,
2013-06-30 13:00:00,70.5,69.3,29.78,SSW,209,10.0,11.0,96,0.00,,---,0.02,VWS V12.08,2013-06-30 17:00:00,
2013-06-30 13:01:00,70.4,69.2,29.78,SSW,207,5.0,8.0,96,0.00,,---,0.02,VWS V12.08,2013-06-30 17:01:00,
2013-06-30 13:03:00,70.2,69.0,29.78,SW,219,6.0,11.0,96,0.00,,---,0.02,VWS V12.08,2013-06-30 17:03:00,
2013-06-30 13:04:00,70.1,68.6,29.78,SW,225,9.0,11.0,95,0.00,,---,0.02,VWS V12.08,2013-06-30 17:04:00,
2013-06-30 13:05:00,69.9,68.4,29.78,SSW,210,6.0,11.0,95,0.00,,---,0.02,VWS V12.08,2013-06-30 17:05:00,
2013-06-30 13:06:00,69.7,68.2,29.78,SSW,211,6.0,11.0,95,0.00,,---,0.02,VWS V12.08,2013-06-30 17:06:00,
2013-06-30 13:08:00,69.5,68.0,29.78,SW,219,5.0,11.0,95,0.00,,---,0.02,VWS V12.08,2013-06-30 17:08:00,
2013-06-30 13:09:00,69.4,67.9,29.78,SW,223,6.0,11.0,95,0.00,,---,0.02,VWS V12.08,2013-06-30 17:09:00,
2013-06-30 13:10:00,69.3,67.8,29.77,SW,219,3.0,11.0,95,0.00,,---,0.02,VWS V12.08,2013-06-30 17:10:00,
2013-06-30 13:11:00,69.3,67.8,29.77,SW,218,5.0,6.0,95,0.00,,---,0.02,VWS V12.08,2013-06-30 17:11:00,
2013-06-30 13:13:00,69.3,67.8,29.78,SW,220,6.0,6.0,95,0.00,,---,0.02,VWS V12.08,2013-06-30 17:13:00,
2013-06-30 13:14:00,69.2,67.7,29.78,SW,220,6.0,7.0,95,0.00,,---,0.02,VWS V12.08,2013-06-30 17:14:00,
2013-06-30 13:15:00,69.4,68.2,29.78,SW,219,4.0,7.0,96,0.00,,---,0.02,VWS V12.08,2013-06-30 17:15:00,
2013-06-30 13:16:00,69.4,68.2,29.78,SW,219,4.0,7.0,96,0.00,,---,0.02,VWS V12.08,2013-06-30 17:16:00,
2013-06-30 13:18:00,69.4,68.2,29.78,SW,218,4.0,7.0,96,0.00,,---,0.02,VWS V12.08,2013-06-30 17:18:00,
2013-06-30 13:19:00,69.5,68.3,29.78,SW,216,4.0,7.0,96,0.00,,---,0.02,VWS V12.08,2013-06-30 17:19:00,
2013-06-30 13:20:00,69.4,68.2,29.78,SW,216,6.0,7.0,96,0.00,,---,0.02,VWS V12.08,2013-06-30 17:20:00,
2013-06-30 13:21:00,69.4,67.9,29.78,SW,216,6.0,6.0,95,0.00,,---,0.02,VWS V12.08,2013-06-30 17:21:00,
2013-06-30 13:23:00,69.2,67.7,29.78,SW,214,5.0,7.0,95,0.00,,---,0.02,VWS V12.08,2013-06-30 17:23:00,
2013-06-30 13:24:00,69.2,67.7,29.78,SW,214,5.0,7.0,95,0.00,,---,0.02,VWS V12.08,2013-06-30 17:24:00,
2013-06-30 13:26:00,69.1,67.9,29.78,SSW,213,6.0,7.0,96,0.00,,---,0.02,VWS V12.08,2013-06-30 17:26:00,
2013-06-30 13:28:00,69.0,67.8,29.78,SW,214,5.0,7.0,96,0.00,,---,0.02,VWS V12.08,2013-06-30 17:28:00,
2013-06-30 13:30:00,69.0,67.8,29.78,SW,214,3.0,7.0,96,0.00,,---,0.02,VWS V12.08,2013-06-30 17:30:00,
2013-06-30 13:31:00,69.1,67.9,29.78,SW,214,4.0,7.0,96,0.00,,---,0.02,VWS V12.08,2013-06-30 17:31:00,
2013-06-30 13:32:00,69.2,68.0,29.78,SW,214,5.0,6.0,96,0.00,,---,0.02,VWS V12.08,2013-06-30 17:32:00,
2013-06-30 13:33:00,69.2,68.0,29.78,SW,214,4.0,6.0,96,0.00,,---,0.02,VWS V12.08,2013-06-30 17:33:00,
2013-06-30 13:35:00,69.2,68.0,29.78,SW,219,4.0,6.0,96,0.00,,---,0.02,VWS V12.08,2013-06-30 17:35:00,
2013-06-30 13:36:00,69.2,68.0,29.78,SW,215,5.0,9.0,96,0.00,,---,0.02,VWS V12.08,2013-06-30 17:36:00,
2013-06-30 13:37:00,69.2,68.0,29.78,SW,218,4.0,9.0,96,0.00,,---,0.02,VWS V12.08,2013-06-30 17:37:00,
2013-06-30 13:38:00,69.3,68.1,29.78,SSW,208,4.0,9.0,96,0.00,,---,0.02,VWS V12.08,2013-06-30 17:38:00,
2013-06-30 13:39:00,69.3,68.1,29.78,SSW,208,5.0,9.0,96,0.00,,---,0.02,VWS V12.08,2013-06-30 17:39:00,
2013-06-30 13:40:00,69.4,68.2,29.78,SW,219,6.0,9.0,96,0.00,,---,0.02,VWS V12.08,2013-06-30 17:40:00,
2013-06-30 13:41:00,69.5,68.3,29.78,SW,217,6.0,7.0,96,0.00,,---,0.02,VWS V12.08,2013-06-30 17:41:00,
2013-06-30 13:42:00,69.7,68.5,29.78,SSW,213,6.0,7.0,96,0.00,,---,0.02,VWS V12.08,2013-06-30 17:42:00,
2013-06-30 13:44:00,70.0,68.8,29.78,SSW,211,6.0,9.0,96,0.00,,---,0.02,VWS V12.08,2013-06-30 17:44:00,
2013-06-30 13:45:00,70.2,69.0,29.78,SSW,211,7.0,9.0,96,0.00,,---,0.02,VWS V12.08,2013-06-30 17:45:00,
2013-06-30 13:46:00,70.4,69.2,29.78,SSW,207,7.0,9.0,96,0.00,,---,0.02,VWS V12.08,2013-06-30 17:46:00,
2013-06-30 13:47:00,70.5,69.3,29.78,SSW,207,9.0,10.0,96,0.00,,---,0.02,VWS V12.08,2013-06-30 17:47:00,
2013-06-30 13:49:00,70.6,69.4,29.78,SSW,211,7.0,11.0,96,0.00,,---,0.02,VWS V12.08,2013-06-30 17:49:00,
2013-06-30 13:50:00,70.8,69.6,29.78,SSW,210,10.0,11.0,96,0.00,,---,0.02,VWS V12.08,2013-06-30 17:50:00,
2013-06-30 13:51:00,70.9,69.7,29.78,SSW,200,9.0,10.0,96,0.00,,---,0.02,VWS V12.08,2013-06-30 17:51:00,
2013-06-30 13:52:00,70.9,69.7,29.78,SSW,202,6.0,10.0,96,0.00,,---,0.02,VWS V12.08,2013-06-30 17:52:00,
2013-06-30 13:54:00,70.9,69.7,29.78,SSW,197,9.0,11.0,96,0.00,,---,0.02,VWS V12.08,2013-06-30 17:54:00,
2013-06-30 13:55:00,70.9,69.7,29.78,SSW,207,6.0,11.0,96,0.00,,---,0.02,VWS V12.08,2013-06-30 17:55:00,
2013-06-30 13:56:00,70.9,69.7,29.77,South,190,7.0,11.0,96,0.00,,---,0.02,VWS V12.08,2013-06-30 17:56:00,
2013-06-30 13:57:00,70.9,69.7,29.77,SSW,200,10.0,11.0,96,0.00,,---,0.02,VWS V12.08,2013-06-30 17:57:00,
2013-06-30 13:59:00,70.9,69.7,29.78,SSW,200,7.0,11.0,96,0.00,,---,0.02,VWS V12.08,2013-06-30 17:59:00,
2013-06-30 14:00:00,70.8,69.6,29.78,SSW,206,6.0,11.0,96,0.00,,---,0.02,VWS V12.08,2013-06-30 18:00:00,
2013-06-30 14:01:00,70.8,69.6,29.77,SSW,204,6.0,9.0,96,0.00,,---,0.02,VWS V12.08,2013-06-30 18:01:00,
2013-06-30 14:02:00,70.6,69.4,29.77,SSW,200,7.0,9.0,96,0.00,,---,0.02,VWS V12.08,2013-06-30 18:02:00,
2013-06-30 14:04:00,70.6,69.4,29.77,SSW,201,6.0,9.0,96,0.00,,---,0.02,VWS V12.08,2013-06-30 18:04:00,
2013-06-30 14:05:00,70.7,69.5,29.77,SSW,202,7.0,9.0,96,0.00,,---,0.02,VWS V12.08,2013-06-30 18:05:00,
2013-06-30 14:06:00,70.8,69.6,29.78,SSW,195,7.0,10.0,96,0.00,,---,0.02,VWS V12.08,2013-06-30 18:06:00,
2013-06-30 14:07:00,70.8,69.6,29.78,SSW,198,7.0,10.0,96,0.00,,---,0.02,VWS V12.08,2013-06-30 18:07:00,
2013-06-30 14:09:00,70.8,69.6,29.77,SSW,198,9.0,10.0,96,0.00,,---,0.02,VWS V12.08,2013-06-30 18:09:00,
2013-06-30 14:11:00,70.9,69.7,29.77,SSW,200,11.0,11.0,96,0.00,,---,0.02,VWS V12.08,2013-06-30 18:11:00,
2013-06-30 14:12:00,70.9,69.7,29.77,SSW,200,10.0,11.0,96,0.00,,---,0.02,VWS V12.08,2013-06-30 18:12:00,
2013-06-30 14:14:00,70.9,69.7,29.77,South,189,10.0,11.0,96,0.00,,---,0.02,VWS V12.08,2013-06-30 18:14:00,
2013-06-30 14:15:00,70.8,69.6,29.77,SSW,196,9.0,12.0,96,0.00,,---,0.02,VWS V12.08,2013-06-30 18:15:00,
2013-06-30 14:16:00,70.8,69.6,29.77,SSW,199,6.0,12.0,96,0.00,,---,0.02,VWS V12.08,2013-06-30 18:16:00,
2013-06-30 14:17:00,70.7,69.2,29.77,SSW,196,10.0,12.0,95,0.00,,---,0.02,VWS V12.08,2013-06-30 18:17:00,
2013-06-30 14:19:00,70.6,69.1,29.77,SSW,202,8.0,12.0,95,0.00,,---,0.02,VWS V12.08,2013-06-30 18:19:00,
2013-06-30 14:20:00,70.5,69.0,29.77,SSW,197,9.0,12.0,95,0.00,,---,0.02,VWS V12.08,2013-06-30 18:20:00,
2013-06-30 14:21:00,70.5,69.3,29.77,SSW,196,10.0,10.0,96,0.00,,---,0.02,VWS V12.08,2013-06-30 18:21:00,
2013-06-30 14:22:00,70.6,69.4,29.77,SSW,200,9.0,10.0,96,0.00,,---,0.02,VWS V12.08,2013-06-30 18:22:00,
2013-06-30 14:24:00,70.9,69.7,29.77,SSW,192,6.0,11.0,96,0.00,,---,0.02,VWS V12.08,2013-06-30 18:24:00,
2013-06-30 14:25:00,71.2,70.0,29.78,SSW,198,9.0,11.0,96,0.00,,---,0.02,VWS V12.08,2013-06-30 18:25:00,
2013-06-30 14:26:00,71.5,70.3,29.78,SSW,196,7.0,11.0,96,0.00,,---,0.02,VWS V12.08,2013-06-30 18:26:00,
2013-06-30 14:27:00,71.6,70.4,29.78,SSW,198,8.0,11.0,96,0.00,,---,0.02,VWS V12.08,2013-06-30 18:27:00,
2013-06-30 14:29:00,71.9,70.7,29.78,SSW,196,6.0,11.0,96,0.00,,---,0.02,VWS V12.08,2013-06-30 18:29:00,
2013-06-30 14:30:00,72.0,70.8,29.78,SSW,204,9.0,11.0,96,0.00,,---,0.02,VWS V12.08,2013-06-30 18:30:00,
2013-06-30 14:31:00,72.1,70.9,29.78,SSW,202,7.0,7.0,96,0.00,,---,0.02,VWS V12.08,2013-06-30 18:31:00,
2013-06-30 14:32:00,72.2,71.0,29.78,SSW,201,7.0,10.0,96,0.00,,---,0.02,VWS V12.08,2013-06-30 18:32:00,
2013-06-30 14:34:00,72.6,71.4,29.78,SSW,208,8.0,10.0,96,0.00,,---,0.02,VWS V12.08,2013-06-30 18:34:00,
2013-06-30 14:35:00,72.8,71.6,29.78,SSW,203,5.0,10.0,96,0.00,,---,0.02,VWS V12.08,2013-06-30 18:35:00,
2013-06-30 14:36:00,72.9,71.7,29.78,SSW,196,7.0,10.0,96,0.00,,---,0.02,VWS V12.08,2013-06-30 18:36:00,
2013-06-30 14:37:00,73.1,71.9,29.78,SSW,206,8.0,10.0,96,0.00,,---,0.02,VWS V12.08,2013-06-30 18:37:00,
2013-06-30 14:39:00,73.3,71.8,29.78,SSW,197,6.0,10.0,95,0.00,,---,0.02,VWS V12.08,2013-06-30 18:39:00,
2013-06-30 14:40:00,73.3,71.8,29.78,SSW,211,6.0,10.0,95,0.00,,---,0.02,VWS V12.08,2013-06-30 18:40:00,
2013-06-30 14:41:00,73.5,72.0,29.78,SSW,200,9.0,9.0,95,0.00,,---,0.02,VWS V12.08,2013-06-30 18:41:00,
2013-06-30 14:42:00,73.6,72.1,29.78,SSW,202,7.0,9.0,95,0.00,,---,0.02,VWS V12.08,2013-06-30 18:42:00,
2013-06-30 14:44:00,73.7,71.9,29.78,SSW,205,7.0,9.0,94,0.00,,---,0.02,VWS V12.08,2013-06-30 18:44:00,
2013-06-30 14:45:00,73.8,72.0,29.78,SSW,207,7.0,9.0,94,0.00,,---,0.02,VWS V12.08,2013-06-30 18:45:00,
2013-06-30 14:46:00,73.9,72.1,29.78,SSW,213,4.0,10.0,94,0.00,,---,0.02,VWS V12.08,2013-06-30 18:46:00,
2013-06-30 14:47:00,74.0,72.2,29.78,SSW,205,5.0,10.0,94,0.00,,---,0.02,VWS V12.08,2013-06-30 18:47:00,
2013-06-30 14:49:00,74.2,72.1,29.78,SSW,201,7.0,10.0,93,0.00,,---,0.02,VWS V12.08,2013-06-30 18:49:00,
2013-06-30 14:50:00,74.2,72.1,29.78,SSW,201,6.0,10.0,93,0.00,,---,0.02,VWS V12.08,2013-06-30 18:50:00,
2013-06-30 14:51:00,74.2,72.1,29.78,SSW,197,7.0,7.0,93,0.00,,---,0.02,VWS V12.08,2013-06-30 18:51:00,
2013-06-30 14:52:00,74.3,72.2,29.78,SSW,197,3.0,7.0,93,0.00,,---,0.02,VWS V12.08,2013-06-30 18:52:00,
2013-06-30 14:55:00,74.3,72.2,29.78,SSW,196,6.0,7.0,93,0.00,,---,0.02,VWS V12.08,2013-06-30 18:55:00,
2013-06-30 14:56:00,74.3,71.8,29.78,SSW,197,6.0,7.0,92,0.00,,---,0.02,VWS V12.08,2013-06-30 18:56:00,
2013-06-30 14:57:00,74.1,71.6,29.79,SSW,197,5.0,7.0,92,0.00,,---,0.02,VWS V12.08,2013-06-30 18:57:00,
2013-06-30 14:58:00,73.9,71.1,29.79,SSW,198,4.0,8.0,91,0.00,,---,0.02,VWS V12.08,2013-06-30 18:58:00,
2013-06-30 15:00:00,73.8,71.0,29.79,SSW,198,5.0,8.0,91,0.00,,---,0.02,VWS V12.08,2013-06-30 19:00:00,
2013-06-30 15:01:00,73.7,70.9,29.79,SSW,198,6.0,6.0,91,0.00,,---,0.02,VWS V12.08,2013-06-30 19:01:00,
2013-06-30 15:02:00,73.7,70.9,29.79,SSW,198,4.0,7.0,91,0.00,,---,0.02,VWS V12.08,2013-06-30 19:02:00,
2013-06-30 15:03:00,73.6,70.5,29.79,SSW,198,6.0,9.0,90,0.00,,---,0.02,VWS V12.08,2013-06-30 19:03:00,
2013-06-30 15:05:00,73.5,70.4,29.79,SSW,199,6.0,9.0,90,0.00,,---,0.02,VWS V12.08,2013-06-30 19:05:00,
2013-06-30 15:06:00,73.5,70.4,29.79,SSW,195,6.0,9.0,90,0.00,,---,0.02,VWS V12.08,2013-06-30 19:06:00,
2013-06-30 15:07:00,73.5,70.4,29.79,SSW,198,6.0,9.0,90,0.00,,---,0.02,VWS V12.08,2013-06-30 19:07:00,
2013-06-30 15:08:00,73.5,70.7,29.79,SSW,198,7.0,9.0,91,0.00,,---,0.02,VWS V12.08,2013-06-30 19:08:00,
2013-06-30 15:10:00,73.6,70.8,29.79,SSW,198,6.0,9.0,91,0.00,,---,0.02,VWS V12.08,2013-06-30 19:10:00,
2013-06-30 15:11:00,73.7,70.9,29.79,SSW,198,7.0,7.0,91,0.00,,---,0.02,VWS V12.08,2013-06-30 19:11:00,
2013-06-30 15:12:00,73.7,70.9,29.79,SSW,198,3.0,7.0,91,0.00,,---,0.02,VWS V12.08,2013-06-30 19:12:00,
2013-06-30 15:13:00,73.8,71.0,29.79,SSW,198,5.0,7.0,91,0.00,,---,0.02,VWS V12.08,2013-06-30 19:13:00,
2013-06-30 15:15:00,74.0,71.2,29.78,SSW,194,7.0,9.0,91,0.00,,---,0.02,VWS V12.08,2013-06-30 19:15:00,
2013-06-30 15:16:00,74.0,70.9,29.78,SSW,194,5.0,9.0,90,0.00,,---,0.02,VWS V12.08,2013-06-30 19:16:00,
2013-06-30 15:17:00,74.0,70.9,29.78,SSW,194,3.0,9.0,90,0.00,,---,0.02,VWS V12.08,2013-06-30 19:17:00,
2013-06-30 15:18:00,74.1,71.0,29.78,SSW,194,4.0,9.0,90,0.00,,---,0.02,VWS V12.08,2013-06-30 19:18:00,
2013-06-30 15:20:00,74.3,71.5,29.78,SSW,197,5.0,9.0,91,0.00,,---,0.02,VWS V12.08,2013-06-30 19:20:00,
2013-06-30 15:21:00,74.4,71.6,29.79,SSW,197,4.0,5.0,91,0.00,,---,0.02,VWS V12.08,2013-06-30 19:21:00,
2013-06-30 15:22:00,74.6,71.5,29.79,SSW,197,4.0,7.0,90,0.00,,---,0.02,VWS V12.08,2013-06-30 19:22:00,
2013-06-30 15:23:00,74.7,71.9,29.79,SSW,197,3.0,7.0,91,0.00,,---,0.02,VWS V12.08,2013-06-30 19:23:00,
2013-06-30 15:25:00,74.9,71.8,29.79,SSW,202,3.0,7.0,90,0.00,,---,0.02,VWS V12.08,2013-06-30 19:25:00,
2013-06-30 15:26:00,74.9,71.8,29.79,SSW,202,4.0,7.0,90,0.00,,---,0.02,VWS V12.08,2013-06-30 19:26:00,
2013-06-30 15:27:00,75.0,71.9,29.79,SSW,202,4.0,9.0,90,0.00,,---,0.02,VWS V12.08,2013-06-30 19:27:00,
2013-06-30 15:28:00,74.8,71.3,29.79,SSW,201,6.0,9.0,89,0.00,,---,0.02,VWS V12.08,2013-06-30 19:28:00,
2013-06-30 15:30:00,74.9,71.4,29.79,SSW,201,5.0,9.0,89,0.00,,---,0.02,VWS V12.08,2013-06-30 19:30:00,
2013-06-30 15:31:00,74.9,71.4,29.79,SSW,201,4.0,4.0,89,0.00,,---,0.02,VWS V12.08,2013-06-30 19:31:00,
2013-06-30 15:32:00,74.9,71.4,29.79,SSW,201,4.0,5.0,89,0.00,,---,0.02,VWS V12.08,2013-06-30 19:32:00,
2013-06-30 15:34:00,75.1,72.0,29.79,SSW,201,3.0,5.0,90,0.00,,---,0.02,VWS V12.08,2013-06-30 19:34:00,
2013-06-30 15:35:00,75.2,72.1,29.79,SSW,201,5.0,5.0,90,0.00,,---,0.02,VWS V12.08,2013-06-30 19:35:00,
2013-06-30 15:36:00,75.2,71.7,29.79,SSW,201,5.0,5.0,89,0.00,,---,0.02,VWS V12.08,2013-06-30 19:36:00,
2013-06-30 15:37:00,75.1,71.6,29.79,SSW,201,4.0,6.0,89,0.00,,---,0.02,VWS V12.08,2013-06-30 19:37:00,
2013-06-30 15:39:00,75.2,71.7,29.79,SSW,201,2.0,6.0,89,0.00,,---,0.02,VWS V12.08,2013-06-30 19:39:00,
2013-06-30 15:40:00,75.2,71.7,29.79,SSW,201,5.0,6.0,89,0.00,,---,0.02,VWS V12.08,2013-06-30 19:40:00,
2013-06-30 15:41:00,75.2,71.7,29.79,SSW,199,5.0,5.0,89,0.00,,---,0.02,VWS V12.08,2013-06-30 19:41:00,
2013-06-30 15:42:00,75.3,71.8,29.79,SSW,200,5.0,7.0,89,0.00,,---,0.02,VWS V12.08,2013-06-30 19:42:00,
2013-06-30 15:44:00,75.3,71.8,29.79,SSW,200,6.0,7.0,89,0.00,,---,0.02,VWS V12.08,2013-06-30 19:44:00,
2013-06-30 15:45:00,75.4,71.9,29.79,SSW,199,3.0,7.0,89,0.00,,---,0.02,VWS V12.08,2013-06-30 19:45:00,
2013-06-30 15:46:00,75.5,72.0,29.79,SSW,199,6.0,7.0,89,0.00,,---,0.02,VWS V12.08,2013-06-30 19:46:00,
2013-06-30 15:47:00,75.6,72.1,29.79,SSW,194,5.0,7.0,89,0.00,,---,0.02,VWS V12.08,2013-06-30 19:47:00,
2013-06-30 15:49:00,75.7,72.2,29.79,SSW,194,4.0,7.0,89,0.00,,---,0.02,VWS V12.08,2013-06-30 19:49:00,
2013-06-30 15:51:00,75.8,72.3,29.79,SSW,205,5.0,7.0,89,0.00,,---,0.02,VWS V12.08,2013-06-30 19:51:00,
2013-06-30 15:53:00,75.8,72.0,29.79,SSW,205,4.0,7.0,88,0.00,,---,0.02,VWS V12.08,2013-06-30 19:53:00,
2013-06-30 15:55:00,75.7,71.9,29.79,SSW,205,6.0,7.0,88,0.00,,---,0.02,VWS V12.08,2013-06-30 19:55:00,
2013-06-30 15:56:00,75.7,71.9,29.79,SSW,201,6.0,7.0,88,0.00,,---,0.02,VWS V12.08,2013-06-30 19:56:00,
2013-06-30 15:57:00,75.6,71.8,29.79,SSW,200,5.0,7.0,88,0.00,,---,0.02,VWS V12.08,2013-06-30 19:57:00,
2013-06-30 15:58:00,75.5,71.7,29.79,SSW,200,6.0,7.0,88,0.00,,---,0.02,VWS V12.08,2013-06-30 19:58:00,
2013-06-30 16:00:00,75.4,71.3,29.79,SSW,201,6.0,7.0,87,0.00,,---,0.02,VWS V12.08,2013-06-30 20:00:00,
2013-06-30 16:01:00,75.3,71.2,29.78,SSW,201,5.0,7.0,87,0.00,,---,0.02,VWS V12.08,2013-06-30 20:01:00,
2013-06-30 16:02:00,75.2,71.1,29.78,SSW,200,6.0,7.0,87,0.00,,---,0.02,VWS V12.08,2013-06-30 20:02:00,
2013-06-30 16:03:00,75.2,71.1,29.78,SSW,200,6.0,7.0,87,0.00,,---,0.02,VWS V12.08,2013-06-30 20:03:00,
2013-06-30 16:05:00,75.1,71.0,29.78,SSW,201,5.0,7.0,87,0.00,,---,0.02,VWS V12.08,2013-06-30 20:05:00,
2013-06-30 16:06:00,75.0,70.9,29.78,SSW,200,4.0,7.0,87,0.00,,---,0.02,VWS V12.08,2013-06-30 20:06:00,
2013-06-30 16:07:00,74.9,70.8,29.78,SSW,201,5.0,7.0,87,0.00,,---,0.02,VWS V12.08,2013-06-30 20:07:00,
2013-06-30 16:08:00,74.9,70.8,29.78,SSW,201,3.0,7.0,87,0.00,,---,0.02,VWS V12.08,2013-06-30 20:08:00,
2013-06-30 16:10:00,74.9,71.1,29.78,SSW,200,3.0,7.0,88,0.00,,---,0.02,VWS V12.08,2013-06-30 20:10:00,
2013-06-30 16:11:00,74.9,71.1,29.78,SSW,201,3.0,5.0,88,0.00,,---,0.02,VWS V12.08,2013-06-30 20:11:00,
2013-06-30 16:12:00,74.9,71.1,29.78,SSW,200,2.0,5.0,88,0.00,,---,0.02,VWS V12.08,2013-06-30 20:12:00,
2013-06-30 16:13:00,74.9,71.1,29.78,SSW,201,2.0,5.0,88,0.00,,---,0.02,VWS V12.08,2013-06-30 20:13:00,
2013-06-30 16:15:00,74.9,71.1,29.78,SSW,201,2.0,5.0,88,0.00,,---,0.02,VWS V12.08,2013-06-30 20:15:00,
2013-06-30 16:17:00,74.9,71.1,29.78,SSW,201,2.0,5.0,88,0.00,,---,0.02,VWS V12.08,2013-06-30 20:17:00,
2013-06-30 16:18:00,74.9,71.1,29.78,SSW,200,3.0,5.0,88,0.00,,---,0.02,VWS V12.08,2013-06-30 20:18:00,
2013-06-30 16:21:00,74.9,71.1,29.78,SSW,200,2.0,5.0,88,0.00,,---,0.02,VWS V12.08,2013-06-30 20:21:00,
2013-06-30 16:22:00,74.9,71.1,29.78,SSW,200,0.0,2.0,88,0.00,,---,0.02,VWS V12.08,2013-06-30 20:22:00,
2013-06-30 16:23:00,74.9,71.1,29.78,SSW,200,1.0,3.0,88,0.00,,---,0.02,VWS V12.08,2013-06-30 20:23:00,
2013-06-30 16:26:00,75.0,71.2,29.78,SSW,200,2.0,4.0,88,0.00,,---,0.02,VWS V12.08,2013-06-30 20:26:00,
2013-06-30 16:27:00,75.0,71.2,29.78,SSW,200,2.0,4.0,88,0.00,,---,0.02,VWS V12.08,2013-06-30 20:27:00,
2013-06-30 16:28:00,75.0,71.2,29.78,SSW,201,3.0,4.0,88,0.00,,---,0.02,VWS V12.08,2013-06-30 20:28:00,
2013-06-30 16:29:00,75.1,71.3,29.78,SSW,201,3.0,4.0,88,0.00,,---,0.02,VWS V12.08,2013-06-30 20:29:00,
2013-06-30 16:31:00,75.0,71.2,29.78,SSW,200,5.0,5.0,88,0.00,,---,0.02,VWS V12.08,2013-06-30 20:31:00,
2013-06-30 16:32:00,75.0,71.2,29.78,SSW,200,3.0,5.0,88,0.00,,---,0.02,VWS V12.08,2013-06-30 20:32:00,
2013-06-30 16:33:00,74.9,71.1,29.78,SSW,200,3.0,5.0,88,0.00,,---,0.02,VWS V12.08,2013-06-30 20:33:00,
2013-06-30 16:34:00,74.9,71.1,29.78,SSW,200,4.0,5.0,88,0.00,,---,0.02,VWS V12.08,2013-06-30 20:34:00,
2013-06-30 16:36:00,74.8,71.0,29.78,SSW,200,5.0,5.0,88,0.00,,---,0.02,VWS V12.08,2013-06-30 20:36:00,
2013-06-30 16:37:00,74.7,70.9,29.78,SSW,198,5.0,5.0,88,0.00,,---,0.02,VWS V12.08,2013-06-30 20:37:00,
2013-06-30 16:38:00,74.7,70.6,29.78,SSW,192,5.0,5.0,87,0.00,,---,0.02,VWS V12.08,2013-06-30 20:38:00,
2013-06-30 16:39:00,74.6,70.5,29.78,SSW,192,4.0,5.0,87,0.00,,---,0.02,VWS V12.08,2013-06-30 20:39:00,
2013-06-30 16:41:00,74.5,70.7,29.78,South,184,5.0,6.0,88,0.00,,---,0.02,VWS V12.08,2013-06-30 20:41:00,
2013-06-30 16:42:00,74.5,70.7,29.78,South,184,5.0,6.0,88,0.00,,---,0.02,VWS V12.08,2013-06-30 20:42:00,
2013-06-30 16:43:00,74.5,70.7,29.78,South,184,5.0,6.0,88,0.00,,---,0.02,VWS V12.08,2013-06-30 20:43:00,
2013-06-30 16:44:00,74.4,70.6,29.78,South,184,5.0,6.0,88,0.00,,---,0.02,VWS V12.08,2013-06-30 20:44:00,
2013-06-30 16:46:00,74.5,70.7,29.78,South,184,4.0,6.0,88,0.00,,---,0.02,VWS V12.08,2013-06-30 20:46:00,
2013-06-30 16:47:00,74.5,70.7,29.78,South,184,4.0,6.0,88,0.00,,---,0.02,VWS V12.08,2013-06-30 20:47:00,
2013-06-30 16:48:00,74.5,70.7,29.78,South,184,3.0,6.0,88,0.00,,---,0.02,VWS V12.08,2013-06-30 20:48:00,
2013-06-30 16:50:00,74.4,70.3,29.78,South,184,3.0,6.0,87,0.00,,---,0.02,VWS V12.08,2013-06-30 20:50:00,
2013-06-30 16:51:00,74.3,70.2,29.78,South,184,4.0,5.0,87,0.00,,---,0.02,VWS V12.08,2013-06-30 20:51:00,
2013-06-30 16:52:00,74.3,70.5,29.78,South,184,4.0,5.0,88,0.00,,---,0.02,VWS V12.08,2013-06-30 20:52:00,
2013-06-30 16:53:00,74.3,70.5,29.78,South,184,5.0,5.0,88,0.00,,---,0.02,VWS V12.08,2013-06-30 20:53:00,
2013-06-30 16:54:00,74.3,70.5,29.78,South,184,5.0,5.0,88,0.00,,---,0.02,VWS V12.08,2013-06-30 20:54:00,
2013-06-30 16:55:00,74.2,70.4,29.78,South,184,4.0,5.0,88,0.00,,---,0.02,VWS V12.08,2013-06-30 20:55:00,
2013-06-30 16:56:00,74.1,70.0,29.78,South,184,4.0,5.0,87,0.00,,---,0.02,VWS V12.08,2013-06-30 20:56:00,
2013-06-30 16:57:00,74.0,69.9,29.78,South,184,5.0,5.0,87,0.00,,---,0.02,VWS V12.08,2013-06-30 20:57:00,
2013-06-30 16:58:00,73.9,69.8,29.78,South,184,4.0,5.0,87,0.00,,---,0.02,VWS V12.08,2013-06-30 20:58:00,
2013-06-30 16:59:00,73.9,69.8,29.78,South,184,4.0,5.0,87,0.00,,---,0.02,VWS V12.08,2013-06-30 20:59:00,
2013-06-30 17:00:00,73.8,69.7,29.78,South,184,5.0,5.0,87,0.00,,---,0.02,VWS V12.08,2013-06-30 21:00:00,
2013-06-30 17:01:00,73.8,69.7,29.78,South,184,5.0,5.0,87,0.00,,---,0.02,VWS V12.08,2013-06-30 21:01:00,
2013-06-30 17:02:00,73.7,69.9,29.78,South,184,4.0,6.0,88,0.00,,---,0.02,VWS V12.08,2013-06-30 21:02:00,
2013-06-30 17:03:00,73.7,69.9,29.78,South,184,5.0,6.0,88,0.00,,---,0.02,VWS V12.08,2013-06-30 21:03:00,
2013-06-30 17:04:00,73.7,69.9,29.78,South,184,4.0,6.0,88,0.00,,---,0.02,VWS V12.08,2013-06-30 21:04:00,
2013-06-30 17:05:00,73.7,69.9,29.78,South,184,5.0,6.0,88,0.00,,---,0.02,VWS V12.08,2013-06-30 21:05:00,
2013-06-30 17:06:00,73.7,69.9,29.78,South,184,6.0,6.0,88,0.00,,---,0.02,VWS V12.08,2013-06-30 21:06:00,
2013-06-30 17:07:00,73.7,69.9,29.78,South,184,5.0,6.0,88,0.00,,---,0.02,VWS V12.08,2013-06-30 21:07:00,
2013-06-30 17:08:00,73.7,69.9,29.78,South,184,5.0,6.0,88,0.00,,---,0.02,VWS V12.08,2013-06-30 21:08:00,
2013-06-30 17:09:00,73.7,69.9,29.78,South,184,5.0,6.0,88,0.00,,---,0.02,VWS V12.08,2013-06-30 21:09:00,
2013-06-30 17:10:00,73.7,69.9,29.78,South,182,5.0,6.0,88,0.00,,---,0.02,VWS V12.08,2013-06-30 21:10:00,
2013-06-30 17:11:00,73.6,69.8,29.78,South,182,4.0,5.0,88,0.00,,---,0.02,VWS V12.08,2013-06-30 21:11:00,
2013-06-30 17:13:00,73.7,69.9,29.78,South,182,4.0,5.0,88,0.00,,---,0.02,VWS V12.08,2013-06-30 21:13:00,
2013-06-30 17:14:00,73.7,69.9,29.78,South,182,4.0,5.0,88,0.00,,---,0.02,VWS V12.08,2013-06-30 21:14:00,
2013-06-30 17:15:00,73.7,69.9,29.78,South,182,5.0,5.0,88,0.00,,---,0.02,VWS V12.08,2013-06-30 21:15:00,
2013-06-30 17:17:00,73.7,69.9,29.78,South,182,5.0,5.0,88,0.00,,---,0.02,VWS V12.08,2013-06-30 21:17:00,
2013-06-30 17:18:00,73.7,69.9,29.78,South,182,4.0,5.0,88,0.00,,---,0.02,VWS V12.08,2013-06-30 21:18:00,
2013-06-30 17:19:00,73.6,69.8,29.78,South,182,4.0,5.0,88,0.00,,---,0.02,VWS V12.08,2013-06-30 21:19:00,
2013-06-30 17:20:00,73.5,69.7,29.78,South,182,3.0,5.0,88,0.00,,---,0.02,VWS V12.08,2013-06-30 21:20:00,
2013-06-30 17:22:00,73.5,69.7,29.78,South,182,3.0,4.0,88,0.00,,---,0.02,VWS V12.08,2013-06-30 21:22:00,
2013-06-30 17:23:00,73.5,69.7,29.78,South,182,3.0,4.0,88,0.00,,---,0.02,VWS V12.08,2013-06-30 21:23:00,
2013-06-30 17:24:00,73.4,69.6,29.79,South,182,3.0,4.0,88,0.00,,---,0.02,VWS V12.08,2013-06-30 21:24:00,
2013-06-30 17:25:00,73.3,69.5,29.79,South,182,2.0,4.0,88,0.00,,---,0.02,VWS V12.08,2013-06-30 21:25:00,
2013-06-30 17:27:00,73.3,69.5,29.79,South,182,3.0,4.0,88,0.00,,---,0.02,VWS V12.08,2013-06-30 21:27:00,
2013-06-30 17:28:00,73.1,69.3,29.79,South,182,4.0,4.0,88,0.00,,---,0.02,VWS V12.08,2013-06-30 21:28:00,
2013-06-30 17:29:00,73.0,69.2,29.79,South,182,4.0,4.0,88,0.00,,---,0.02,VWS V12.08,2013-06-30 21:29:00,
2013-06-30 17:30:00,73.0,69.2,29.79,South,182,4.0,4.0,88,0.00,,---,0.02,VWS V12.08,2013-06-30 21:30:00,
2013-06-30 17:32:00,72.9,69.1,29.79,South,182,3.0,4.0,88,0.00,,---,0.02,VWS V12.08,2013-06-30 21:32:00,
2013-06-30 17:33:00,72.8,69.0,29.79,South,182,4.0,4.0,88,0.00,,---,0.02,VWS V12.08,2013-06-30 21:33:00,
2013-06-30 17:34:00,72.8,69.0,29.79,South,182,4.0,4.0,88,0.00,,---,0.02,VWS V12.08,2013-06-30 21:34:00,
2013-06-30 17:35:00,72.7,68.9,29.79,South,182,3.0,4.0,88,0.00,,---,0.02,VWS V12.08,2013-06-30 21:35:00,
2013-06-30 17:37:00,72.6,69.2,29.79,South,182,4.0,4.0,89,0.00,,---,0.02,VWS V12.08,2013-06-30 21:37:00,
2013-06-30 17:38:00,72.6,68.8,29.79,South,182,5.0,5.0,88,0.00,,---,0.02,VWS V12.08,2013-06-30 21:38:00,
2013-06-30 17:39:00,72.6,69.2,29.79,South,182,4.0,5.0,89,0.00,,---,0.02,VWS V12.08,2013-06-30 21:39:00,
2013-06-30 17:40:00,72.5,69.1,29.79,South,182,3.0,5.0,89,0.00,,---,0.02,VWS V12.08,2013-06-30 21:40:00,
2013-06-30 17:42:00,72.6,69.2,29.79,South,182,4.0,5.0,89,0.00,,---,0.02,VWS V12.08,2013-06-30 21:42:00,
2013-06-30 17:43:00,72.6,69.2,29.79,South,182,6.0,6.0,89,0.00,,---,0.02,VWS V12.08,2013-06-30 21:43:00,
2013-06-30 17:44:00,72.5,69.1,29.79,South,182,4.0,7.0,89,0.00,,---,0.02,VWS V12.08,2013-06-30 21:44:00,
2013-06-30 17:45:00,72.5,69.1,29.79,South,182,6.0,7.0,89,0.00,,---,0.02,VWS V12.08,2013-06-30 21:45:00,
2013-06-30 17:46:00,72.5,69.1,29.79,South,182,5.0,7.0,89,0.00,,---,0.02,VWS V12.08,2013-06-30 21:46:00,
2013-06-30 17:47:00,72.5,69.1,29.79,South,182,5.0,7.0,89,0.00,,---,0.02,VWS V12.08,2013-06-30 21:47:00,
2013-06-30 17:49:00,72.4,69.0,29.79,South,182,5.0,7.0,89,0.00,,---,0.02,VWS V12.08,2013-06-30 21:49:00,
2013-06-30 17:50:00,72.4,69.0,29.79,South,182,5.0,7.0,89,0.00,,---,0.02,VWS V12.08,2013-06-30 21:50:00,
2013-06-30 17:51:00,72.4,69.0,29.79,South,182,5.0,5.0,89,0.00,,---,0.02,VWS V12.08,2013-06-30 21:51:00,
2013-06-30 17:53:00,72.4,69.0,29.79,South,182,5.0,5.0,89,0.00,,---,0.02,VWS V12.08,2013-06-30 21:53:00,
2013-06-30 17:54:00,72.3,68.9,29.79,South,182,6.0,6.0,89,0.00,,---,0.02,VWS V12.08,2013-06-30 21:54:00,
2013-06-30 17:55:00,72.3,68.9,29.79,South,182,6.0,6.0,89,0.00,,---,0.02,VWS V12.08,2013-06-30 21:55:00,
2013-06-30 17:57:00,72.2,68.8,29.79,South,177,6.0,7.0,89,0.00,,---,0.02,VWS V12.08,2013-06-30 21:57:00,
2013-06-30 17:58:00,72.2,68.8,29.79,South,177,5.0,7.0,89,0.00,,---,0.02,VWS V12.08,2013-06-30 21:58:00,
2013-06-30 17:59:00,72.2,68.8,29.79,South,170,6.0,7.0,89,0.00,,---,0.02,VWS V12.08,2013-06-30 21:59:00,
2013-06-30 18:00:00,72.2,68.8,29.79,South,170,6.0,7.0,89,0.00,,---,0.02,VWS V12.08,2013-06-30 22:00:00,
2013-06-30 18:02:00,72.3,69.2,29.79,South,170,5.0,5.0,90,0.00,,---,0.02,VWS V12.08,2013-06-30 22:02:00,
2013-06-30 18:03:00,72.3,69.2,29.79,South,170,3.0,5.0,90,0.00,,---,0.02,VWS V12.08,2013-06-30 22:03:00,
2013-06-30 18:04:00,72.3,68.9,29.79,South,170,6.0,6.0,89,0.00,,---,0.02,VWS V12.08,2013-06-30 22:04:00,
2013-06-30 18:05:00,72.3,68.9,29.79,South,170,5.0,6.0,89,0.00,,---,0.02,VWS V12.08,2013-06-30 22:05:00,
2013-06-30 18:07:00,72.3,69.2,29.79,South,170,5.0,6.0,90,0.00,,---,0.02,VWS V12.08,2013-06-30 22:07:00,
2013-06-30 18:08:00,72.3,69.2,29.79,South,170,6.0,6.0,90,0.00,,---,0.02,VWS V12.08,2013-06-30 22:08:00,
2013-06-30 18:10:00,72.3,69.2,29.79,South,170,6.0,7.0,90,0.00,,---,0.02,VWS V12.08,2013-06-30 22:10:00,
2013-06-30 18:12:00,72.2,68.8,29.80,South,171,6.0,9.0,89,0.00,,---,0.02,VWS V12.08,2013-06-30 22:12:00,
2013-06-30 18:13:00,72.1,68.7,29.79,South,171,8.0,9.0,89,0.00,,---,0.02,VWS V12.08,2013-06-30 22:13:00,
2013-06-30 18:15:00,72.1,69.0,29.80,South,171,7.0,10.0,90,0.00,,---,0.02,VWS V12.08,2013-06-30 22:15:00,
2013-06-30 18:16:00,72.0,68.9,29.80,South,171,7.0,10.0,90,0.00,,---,0.02,VWS V12.08,2013-06-30 22:16:00,
2013-06-30 18:17:00,72.0,68.9,29.79,South,171,8.0,10.0,90,0.00,,---,0.02,VWS V12.08,2013-06-30 22:17:00,
2013-06-30 18:18:00,71.9,68.8,29.79,South,171,7.0,10.0,90,0.00,,---,0.02,VWS V12.08,2013-06-30 22:18:00,
2013-06-30 18:20:00,71.9,68.8,29.79,South,171,7.0,10.0,90,0.00,,---,0.02,VWS V12.08,2013-06-30 22:20:00,
2013-06-30 18:21:00,71.9,68.8,29.79,South,171,7.0,10.0,90,0.00,,---,0.02,VWS V12.08,2013-06-30 22:21:00,
2013-06-30 18:22:00,71.8,68.7,29.80,South,171,8.0,9.0,90,0.00,,---,0.02,VWS V12.08,2013-06-30 22:22:00,
2013-06-30 18:23:00,71.7,68.6,29.80,South,171,7.0,9.0,90,0.00,,---,0.02,VWS V12.08,2013-06-30 22:23:00,
2013-06-30 18:25:00,71.7,68.6,29.79,South,171,8.0,9.0,90,0.00,,---,0.02,VWS V12.08,2013-06-30 22:25:00,
2013-06-30 18:26:00,71.7,68.6,29.79,South,171,7.0,9.0,90,0.00,,---,0.02,VWS V12.08,2013-06-30 22:26:00,
2013-06-30 18:27:00,71.6,68.5,29.79,South,171,7.0,9.0,90,0.00,,---,0.02,VWS V12.08,2013-06-30 22:27:00,
2013-06-30 18:28:00,71.6,68.5,29.79,South,171,9.0,10.0,90,0.00,,---,0.02,VWS V12.08,2013-06-30 22:28:00,
2013-06-30 18:30:00,71.6,68.5,29.79,South,171,9.0,10.0,90,0.00,,---,0.02,VWS V12.08,2013-06-30 22:30:00,
2013-06-30 18:31:00,71.6,68.5,29.79,South,171,7.0,10.0,90,0.00,,---,0.02,VWS V12.08,2013-06-30 22:31:00,
2013-06-30 18:32:00,71.5,68.4,29.79,South,171,7.0,9.0,90,0.00,,---,0.02,VWS V12.08,2013-06-30 22:32:00,
2013-06-30 18:33:00,71.5,68.4,29.80,South,173,7.0,9.0,90,0.00,,---,0.02,VWS V12.08,2013-06-30 22:33:00,
2013-06-30 18:35:00,71.5,68.4,29.80,South,173,7.0,9.0,90,0.00,,---,0.02,VWS V12.08,2013-06-30 22:35:00,
2013-06-30 18:36:00,71.5,68.4,29.80,South,173,6.0,9.0,90,0.00,,---,0.02,VWS V12.08,2013-06-30 22:36:00,
2013-06-30 18:37:00,71.6,68.5,29.80,South,173,6.0,9.0,90,0.00,,---,0.02,VWS V12.08,2013-06-30 22:37:00,
2013-06-30 18:39:00,71.6,68.5,29.80,South,173,5.0,9.0,90,0.00,,---,0.02,VWS V12.08,2013-06-30 22:39:00,
2013-06-30 18:40:00,71.7,68.9,29.80,South,173,6.0,9.0,91,0.00,,---,0.02,VWS V12.08,2013-06-30 22:40:00,
2013-06-30 18:41:00,71.7,68.9,29.80,South,173,6.0,9.0,91,0.00,,---,0.02,VWS V12.08,2013-06-30 22:41:00,
2013-06-30 18:42:00,71.7,68.9,29.80,South,173,5.0,6.0,91,0.00,,---,0.02,VWS V12.08,2013-06-30 22:42:00,
2013-06-30 18:43:00,71.7,68.9,29.80,South,173,5.0,7.0,91,0.00,,---,0.02,VWS V12.08,2013-06-30 22:43:00,
2013-06-30 18:44:00,71.8,69.0,29.80,South,173,5.0,7.0,91,0.00,,---,0.02,VWS V12.08,2013-06-30 22:44:00,
2013-06-30 18:45:00,71.8,69.0,29.80,South,173,5.0,7.0,91,0.00,,---,0.02,VWS V12.08,2013-06-30 22:45:00,
2013-06-30 18:46:00,71.8,69.0,29.80,South,173,5.0,7.0,91,0.00,,---,0.02,VWS V12.08,2013-06-30 22:46:00,
2013-06-30 18:47:00,71.8,68.7,29.80,South,173,5.0,7.0,90,0.00,,---,0.02,VWS V12.08,2013-06-30 22:47:00,
2013-06-30 18:48:00,71.8,68.7,29.80,South,173,5.0,7.0,90,0.00,,---,0.02,VWS V12.08,2013-06-30 22:48:00,
2013-06-30 18:49:00,71.8,69.0,29.80,South,173,6.0,7.0,91,0.00,,---,0.02,VWS V12.08,2013-06-30 22:49:00,
2013-06-30 18:50:00,71.9,69.1,29.80,South,173,5.0,7.0,91,0.00,,---,0.02,VWS V12.08,2013-06-30 22:50:00,
2013-06-30 18:51:00,71.8,69.0,29.80,South,173,5.0,6.0,91,0.00,,---,0.02,VWS V12.08,2013-06-30 22:51:00,
2013-06-30 18:52:00,71.8,69.0,29.80,South,173,6.0,6.0,91,0.00,,---,0.02,VWS V12.08,2013-06-30 22:52:00,
2013-06-30 18:53:00,71.8,68.7,29.80,South,173,6.0,7.0,90,0.00,,---,0.02,VWS V12.08,2013-06-30 22:53:00,
2013-06-30 18:54:00,71.7,68.6,29.80,South,173,6.0,7.0,90,0.00,,---,0.02,VWS V12.08,2013-06-30 22:54:00,
2013-06-30 18:55:00,71.7,68.6,29.80,South,173,6.0,7.0,90,0.00,,---,0.02,VWS V12.08,2013-06-30 22:55:00,
2013-06-30 18:56:00,71.6,68.5,29.80,South,173,6.0,7.0,90,0.00,,---,0.02,VWS V12.08,2013-06-30 22:56:00,
2013-06-30 18:57:00,71.5,68.4,29.80,South,173,8.0,8.0,90,0.00,,---,0.02,VWS V12.08,2013-06-30 22:57:00,
2013-06-30 18:58:00,71.5,68.4,29.81,South,174,7.0,10.0,90,0.00,,---,0.02,VWS V12.08,2013-06-30 22:58:00,
2013-06-30 18:59:00,71.4,68.3,29.81,South,174,8.0,10.0,90,0.00,,---,0.02,VWS V12.08,2013-06-30 22:59:00,
2013-06-30 19:01:00,71.2,68.1,29.80,South,174,8.0,8.0,90,0.00,,---,0.02,VWS V12.08,2013-06-30 23:01:00,
2013-06-30 19:02:00,71.0,67.9,29.80,South,175,9.0,11.0,90,0.00,,---,0.02,VWS V12.08,2013-06-30 23:02:00,
2013-06-30 19:03:00,70.9,67.8,29.80,South,175,10.0,11.0,90,0.00,,---,0.02,VWS V12.08,2013-06-30 23:03:00,
2013-06-30 19:04:00,70.8,67.7,29.80,South,177,12.0,12.0,90,0.00,,---,0.02,VWS V12.08,2013-06-30 23:04:00,
2013-06-30 19:06:00,70.7,67.6,29.80,South,179,12.0,12.0,90,0.00,,---,0.02,VWS V12.08,2013-06-30 23:06:00,
2013-06-30 19:07:00,70.6,67.8,29.80,South,181,11.0,14.0,91,0.00,,---,0.02,VWS V12.08,2013-06-30 23:07:00,
2013-06-30 19:08:00,70.6,67.8,29.80,South,178,14.0,14.0,91,0.00,,---,0.02,VWS V12.08,2013-06-30 23:08:00,
2013-06-30 19:09:00,70.6,67.8,29.80,South,179,13.0,14.0,91,0.00,,---,0.02,VWS V12.08,2013-06-30 23:09:00,
2013-06-30 19:11:00,70.5,67.8,29.81,South,180,13.0,13.0,91,0.00,,---,0.02,VWS V12.08,2013-06-30 23:11:00,
2013-06-30 19:12:00,70.4,67.7,29.81,South,180,12.0,14.0,91,0.00,,---,0.02,VWS V12.08,2013-06-30 23:12:00,
2013-06-30 19:14:00,70.4,67.7,29.81,South,180,12.0,14.0,91,0.00,,---,0.02,VWS V12.08,2013-06-30 23:14:00,
2013-06-30 19:16:00,70.3,67.6,29.81,South,181,13.0,14.0,91,0.00,,---,0.02,VWS V12.08,2013-06-30 23:16:00,
2013-06-30 19:18:00,70.2,67.4,29.81,South,180,14.0,15.0,91,0.00,,---,0.02,VWS V12.08,2013-06-30 23:18:00,
2013-06-30 19:19:00,70.1,67.4,29.81,South,179,15.0,15.0,91,0.00,,---,0.02,VWS V12.08,2013-06-30 23:19:00,
2013-06-30 19:21:00,70.0,67.3,29.80,South,180,14.0,15.0,91,0.00,,---,0.02,VWS V12.08,2013-06-30 23:21:00,
2013-06-30 19:23:00,70.0,67.6,29.80,South,178,14.0,16.0,92,0.00,,---,0.02,VWS V12.08,2013-06-30 23:23:00,
2013-06-30 19:24:00,69.9,67.5,29.81,South,181,15.0,16.0,92,0.00,,---,0.02,VWS V12.08,2013-06-30 23:24:00,
2013-06-30 19:26:00,69.8,67.4,29.81,South,180,14.0,16.0,92,0.00,,---,0.02,VWS V12.08,2013-06-30 23:26:00,
2013-06-30 19:27:00,69.8,67.4,29.81,South,179,14.0,16.0,92,0.00,,---,0.02,VWS V12.08,2013-06-30 23:27:00,
2013-06-30 19:28:00,69.8,67.4,29.80,South,182,14.0,16.0,92,0.00,,---,0.02,VWS V12.08,2013-06-30 23:28:00,
2013-06-30 19:29:00,69.8,67.4,29.81,South,179,13.0,16.0,92,0.00,,---,0.02,VWS V12.08,2013-06-30 23:29:00,
2013-06-30 19:31:00,69.8,67.4,29.81,South,183,14.0,15.0,92,0.00,,---,0.02,VWS V12.08,2013-06-30 23:31:00,
2013-06-30 19:32:00,69.8,67.4,29.81,South,182,12.0,15.0,92,0.00,,---,0.02,VWS V12.08,2013-06-30 23:32:00,
2013-06-30 19:33:00,69.7,67.3,29.81,South,183,14.0,15.0,92,0.00,,---,0.02,VWS V12.08,2013-06-30 23:33:00,
2013-06-30 19:34:00,69.7,67.3,29.81,South,182,13.0,15.0,92,0.00,,---,0.02,VWS V12.08,2013-06-30 23:34:00,
2013-06-30 19:35:00,69.6,67.2,29.81,South,184,13.0,15.0,92,0.00,,---,0.02,VWS V12.08,2013-06-30 23:35:00,
2013-06-30 19:36:00,69.6,67.2,29.81,South,184,13.0,15.0,92,0.00,,---,0.02,VWS V12.08,2013-06-30 23:36:00,
2013-06-30 19:37:00,69.6,67.2,29.81,South,182,14.0,15.0,92,0.00,,---,0.02,VWS V12.08,2013-06-30 23:37:00,
2013-06-30 19:38:00,69.7,67.6,29.81,South,180,12.0,15.0,93,0.00,,---,0.02,VWS V12.08,2013-06-30 23:38:00,
2013-06-30 19:39:00,69.7,67.6,29.81,South,182,12.0,15.0,93,0.00,,---,0.02,VWS V12.08,2013-06-30 23:39:00,
2013-06-30 19:40:00,69.7,67.6,29.81,South,182,13.0,15.0,93,0.00,,---,0.02,VWS V12.08,2013-06-30 23:40:00,
2013-06-30 19:41:00,69.9,67.8,29.81,South,182,12.0,13.0,93,0.00,,---,0.02,VWS V12.08,2013-06-30 23:41:00,
2013-06-30 19:42:00,69.9,67.8,29.81,South,182,11.0,13.0,93,0.00,,---,0.02,VWS V12.08,2013-06-30 23:42:00,
2013-06-30 19:43:00,70.0,67.9,29.81,South,182,11.0,14.0,93,0.00,,---,0.02,VWS V12.08,2013-06-30 23:43:00,
2013-06-30 19:44:00,70.0,67.9,29.81,South,184,11.0,14.0,93,0.00,,---,0.02,VWS V12.08,2013-06-30 23:44:00,
2013-06-30 19:45:00,70.1,68.0,29.81,South,183,11.0,14.0,93,0.00,,---,0.02,VWS V12.08,2013-06-30 23:45:00,
2013-06-30 19:47:00,70.1,68.0,29.81,South,184,10.0,14.0,93,0.00,,---,0.02,VWS V12.08,2013-06-30 23:47:00,
2013-06-30 19:49:00,69.9,67.8,29.81,South,190,11.0,14.0,93,0.00,,---,0.02,VWS V12.08,2013-06-30 23:49:00,
2013-06-30 19:50:00,69.9,67.8,29.81,SSW,192,10.0,14.0,93,0.00,,---,0.02,VWS V12.08,2013-06-30 23:50:00,
2013-06-30 19:52:00,70.0,67.9,29.81,SSW,202,8.0,8.0,93,0.00,,---,0.02,VWS V12.08,2013-06-30 23:52:00,
2013-06-30 19:53:00,70.1,68.0,29.81,South,186,10.0,10.0,93,0.00,,---,0.02,VWS V12.08,2013-06-30 23:53:00,
2013-06-30 19:54:00,70.3,68.5,29.82,SSW,193,8.0,10.0,94,0.00,,---,0.02,VWS V12.08,2013-06-30 23:54:00,
2013-06-30 19:55:00,70.4,68.6,29.82,SSW,200,5.0,10.0,94,0.00,,---,0.02,VWS V12.08,2013-06-30 23:55:00,
2013-06-30 19:57:00,70.5,68.4,29.82,SW,217,3.0,10.0,93,0.00,,---,0.02,VWS V12.08,2013-06-30 23:57:00,
2013-06-30 19:58:00,70.5,68.4,29.82,SW,217,4.0,10.0,93,0.00,,---,0.02,VWS V12.08,2013-06-30 23:58:00,
2013-06-30 19:59:00,70.5,68.4,29.82,SSW,213,5.0,10.0,93,0.00,,---,0.02,VWS V12.08,2013-06-30 23:59:00,
2013-06-30 20:00:00,70.5,68.4,29.81,SSW,193,10.0,10.0,93,0.00,,---,0.02,VWS V12.08,2013-07-01 00:00:00,
2013-06-30 20:02:00,70.5,68.4,29.81,SSW,196,7.0,8.0,93,0.00,,---,0.02,VWS V12.08,2013-07-01 00:02:00,
2013-06-30 20:03:00,70.5,68.4,29.81,SSW,192,10.0,10.0,93,0.00,,---,0.02,VWS V12.08,2013-07-01 00:03:00,
2013-06-30 20:04:00,70.4,68.3,29.81,SSW,194,7.0,10.0,93,0.00,,---,0.02,VWS V12.08,2013-07-01 00:04:00,
2013-06-30 20:05:00,70.3,68.2,29.81,South,191,11.0,11.0,93,0.00,,---,0.02,VWS V12.08,2013-07-01 00:05:00,
2013-06-30 20:07:00,70.0,67.9,29.81,South,188,11.0,12.0,93,0.00,,---,0.02,VWS V12.08,2013-07-01 00:07:00,
2013-06-30 20:08:00,69.8,67.7,29.81,South,186,13.0,13.0,93,0.00,,---,0.02,VWS V12.08,2013-07-01 00:08:00,
2013-06-30 20:09:00,69.6,67.5,29.81,South,190,13.0,14.0,93,0.00,,---,0.02,VWS V12.08,2013-07-01 00:09:00,
2013-06-30 20:10:00,69.5,67.4,29.81,South,187,13.0,14.0,93,0.00,,---,0.02,VWS V12.08,2013-07-01 00:10:00,
2013-06-30 20:11:00,69.5,67.4,29.82,South,188,13.0,14.0,93,0.00,,---,0.02,VWS V12.08,2013-07-01 00:11:00,
2013-06-30 20:12:00,69.4,67.3,29.82,South,188,11.0,13.0,93,0.00,,---,0.02,VWS V12.08,2013-07-01 00:12:00,
2013-06-30 20:13:00,69.4,67.3,29.82,South,191,12.0,14.0,93,0.00,,---,0.02,VWS V12.08,2013-07-01 00:13:00,
2013-06-30 20:14:00,69.3,67.2,29.82,South,186,12.0,14.0,93,0.00,,---,0.02,VWS V12.08,2013-07-01 00:14:00,
2013-06-30 20:15:00,69.3,67.2,29.82,SSW,192,9.0,14.0,93,0.00,,---,0.02,VWS V12.08,2013-07-01 00:15:00,
2013-06-30 20:16:00,69.3,67.2,29.82,SSW,192,10.0,14.0,93,0.00,,---,0.02,VWS V12.08,2013-07-01 00:16:00,
2013-06-30 20:17:00,69.3,67.2,29.82,SSW,198,10.0,14.0,93,0.00,,---,0.02,VWS V12.08,2013-07-01 00:17:00,
2013-06-30 20:18:00,69.2,67.1,29.82,SSW,211,11.0,14.0,93,0.00,,---,0.02,VWS V12.08,2013-07-01 00:18:00,
2013-06-30 20:19:00,69.2,67.1,29.82,SSW,200,10.0,14.0,93,0.00,,---,0.02,VWS V12.08,2013-07-01 00:19:00,
2013-06-30 20:20:00,69.2,67.1,29.82,South,191,11.0,14.0,93,0.00,,---,0.02,VWS V12.08,2013-07-01 00:20:00,
2013-06-30 20:21:00,69.2,67.1,29.82,SSW,198,14.0,14.0,93,0.00,,---,0.02,VWS V12.08,2013-07-01 00:21:00,
2013-06-30 20:22:00,69.2,67.4,29.82,South,188,14.0,14.0,94,0.00,,---,0.02,VWS V12.08,2013-07-01 00:22:00,
2013-06-30 20:23:00,69.1,67.3,29.82,South,188,12.0,15.0,94,0.00,,---,0.02,VWS V12.08,2013-07-01 00:23:00,
2013-06-30 20:24:00,69.1,67.3,29.82,South,191,14.0,15.0,94,0.00,,---,0.02,VWS V12.08,2013-07-01 00:24:00,
2013-06-30 20:25:00,69.1,67.3,29.82,SSW,198,10.0,15.0,94,0.00,,---,0.02,VWS V12.08,2013-07-01 00:25:00,
2013-06-30 20:26:00,69.1,67.3,29.82,South,186,13.0,15.0,94,0.00,,---,0.02,VWS V12.08,2013-07-01 00:26:00,
2013-06-30 20:27:00,69.1,67.3,29.82,South,184,13.0,15.0,94,0.00,,---,0.02,VWS V12.08,2013-07-01 00:27:00,
2013-06-30 20:28:00,69.1,67.3,29.82,South,191,12.0,15.0,94,0.00,,---,0.02,VWS V12.08,2013-07-01 00:28:00,
2013-06-30 20:29:00,69.0,67.2,29.82,South,183,14.0,16.0,94,0.00,,---,0.02,VWS V12.08,2013-07-01 00:29:00,
2013-06-30 20:30:00,69.0,67.2,29.82,South,182,15.0,16.0,94,0.00,,---,0.02,VWS V12.08,2013-07-01 00:30:00,
2013-06-30 20:31:00,69.0,67.2,29.82,South,184,15.0,16.0,94,0.00,,---,0.02,VWS V12.08,2013-07-01 00:31:00,
2013-06-30 20:33:00,68.9,67.1,29.82,South,186,13.0,17.0,94,0.00,,---,0.02,VWS V12.08,2013-07-01 00:33:00,
2013-06-30 20:35:00,69.0,67.2,29.82,South,182,15.0,17.0,94,0.00,,---,0.02,VWS V12.08,2013-07-01 00:35:00,
2013-06-30 20:36:00,69.0,67.2,29.82,South,185,15.0,17.0,94,0.00,,---,0.02,VWS V12.08,2013-07-01 00:36:00,
2013-06-30 20:38:00,69.0,67.2,29.82,South,186,13.0,17.0,94,0.00,,---,0.02,VWS V12.08,2013-07-01 00:38:00,
2013-06-30 20:40:00,69.0,67.2,29.83,South,189,14.0,17.0,94,0.00,,---,0.02,VWS V12.08,2013-07-01 00:40:00,
2013-06-30 20:41:00,68.9,67.1,29.83,South,184,15.0,17.0,94,0.00,,---,0.02,VWS V12.08,2013-07-01 00:41:00,
2013-06-30 20:43:00,68.8,67.0,29.83,South,186,17.0,18.0,94,0.00,,---,0.02,VWS V12.08,2013-07-01 00:43:00,
2013-06-30 20:45:00,68.8,67.0,29.83,South,178,16.0,18.0,94,0.00,,---,0.02,VWS V12.08,2013-07-01 00:45:00,
2013-06-30 20:46:00,68.7,66.9,29.83,South,183,17.0,18.0,94,0.00,,---,0.02,VWS V12.08,2013-07-01 00:46:00,
2013-06-30 20:47:00,68.7,66.9,29.83,South,182,15.0,18.0,94,0.00,,---,0.02,VWS V12.08,2013-07-01 00:47:00,
2013-06-30 20:48:00,68.7,66.9,29.83,South,179,15.0,18.0,94,0.00,,---,0.02,VWS V12.08,2013-07-01 00:48:00,
2013-06-30 20:49:00,68.7,66.9,29.83,SSW,198,14.0,18.0,94,0.00,,---,0.02,VWS V12.08,2013-07-01 00:49:00,
2013-06-30 20:50:00,68.7,66.9,29.83,South,186,12.0,18.0,94,0.00,,---,0.02,VWS V12.08,2013-07-01 00:50:00,
2013-06-30 20:51:00,68.7,66.9,29.83,SSW,192,13.0,18.0,94,0.00,,---,0.02,VWS V12.08,2013-07-01 00:51:00,
2013-06-30 20:52:00,68.7,66.9,29.83,South,190,13.0,13.0,94,0.00,,---,0.02,VWS V12.08,2013-07-01 00:52:00,
2013-06-30 20:53:00,68.6,66.8,29.83,South,191,11.0,13.0,94,0.00,,---,0.02,VWS V12.08,2013-07-01 00:53:00,
2013-06-30 20:54:00,68.6,66.8,29.83,South,190,12.0,13.0,94,0.00,,---,0.02,VWS V12.08,2013-07-01 00:54:00,
2013-06-30 20:55:00,68.6,66.8,29.83,South,190,12.0,13.0,94,0.00,,---,0.02,VWS V12.08,2013-07-01 00:55:00,
2013-06-30 20:56:00,68.6,66.8,29.84,SSW,196,12.0,14.0,94,0.00,,---,0.02,VWS V12.08,2013-07-01 00:56:00,
2013-06-30 20:57:00,68.6,66.8,29.83,SSW,200,10.0,14.0,94,0.00,,---,0.02,VWS V12.08,2013-07-01 00:57:00,
2013-06-30 20:58:00,68.5,66.7,29.83,South,187,12.0,14.0,94,0.00,,---,0.02,VWS V12.08,2013-07-01 00:58:00,
2013-06-30 20:59:00,68.5,66.7,29.83,South,191,9.0,14.0,94,0.00,,---,0.02,VWS V12.08,2013-07-01 00:59:00,
2013-06-30 21:00:00,68.5,66.7,29.84,South,188,12.0,14.0,94,0.00,,---,0.02,VWS V12.08,2013-07-01 01:00:00,
2013-06-30 21:01:00,68.5,66.7,29.84,South,188,12.0,12.0,94,0.00,,---,0.02,VWS V12.08,2013-07-01 01:01:00,
2013-06-30 21:02:00,68.5,66.7,29.84,SSW,196,11.0,12.0,94,0.00,,---,0.02,VWS V12.08,2013-07-01 01:02:00,
2013-06-30 21:03:00,68.5,66.7,29.84,SSW,192,12.0,13.0,94,0.00,,---,0.02,VWS V12.08,2013-07-01 01:03:00,
2013-06-30 21:05:00,68.5,66.7,29.84,SSW,202,11.0,13.0,94,0.00,,---,0.02,VWS V12.08,2013-07-01 01:05:00,
2013-06-30 21:06:00,68.4,66.6,29.84,South,184,14.0,14.0,94,0.00,,---,0.02,VWS V12.08,2013-07-01 01:06:00,
2013-06-30 21:07:00,68.4,66.6,29.83,South,188,13.0,14.0,94,0.00,,---,0.02,VWS V12.08,2013-07-01 01:07:00,
2013-06-30 21:09:00,68.4,66.9,29.83,South,190,13.0,14.0,95,0.00,,---,0.02,VWS V12.08,2013-07-01 01:09:00,
2013-06-30 21:10:00,68.3,66.8,29.83,South,188,13.0,14.0,95,0.00,,---,0.02,VWS V12.08,2013-07-01 01:10:00,
2013-06-30 21:11:00,68.3,66.8,29.83,South,188,12.0,12.0,95,0.00,,---,0.02,VWS V12.08,2013-07-01 01:11:00,
2013-06-30 21:12:00,68.3,66.8,29.83,SSW,192,12.0,12.0,95,0.00,,---,0.02,VWS V12.08,2013-07-01 01:12:00,
2013-06-30 21:14:00,68.3,66.8,29.84,SSW,196,10.0,12.0,95,0.00,,---,0.02,VWS V12.08,2013-07-01 01:14:00,
2013-06-30 21:15:00,68.3,66.8,29.84,South,188,10.0,12.0,95,0.00,,---,0.02,VWS V12.08,2013-07-01 01:15:00,
2013-06-30 21:17:00,68.2,66.7,29.84,SSW,197,9.0,12.0,95,0.00,,---,0.02,VWS V12.08,2013-07-01 01:17:00,
2013-06-30 21:19:00,68.2,66.7,29.84,SSW,196,9.0,12.0,95,0.00,,---,0.02,VWS V12.08,2013-07-01 01:19:00,
2013-06-30 21:20:00,68.1,66.6,29.84,SSW,196,7.0,12.0,95,0.00,,---,0.02,VWS V12.08,2013-07-01 01:20:00,
2013-06-30 21:22:00,68.1,66.6,29.84,SSW,200,8.0,9.0,95,0.00,,---,0.02,VWS V12.08,2013-07-01 01:22:00,
2013-06-30 21:24:00,68.0,66.5,29.84,SSW,200,9.0,9.0,95,0.00,,---,0.02,VWS V12.08,2013-07-01 01:24:00,
2013-06-30 21:25:00,68.0,66.5,29.84,SSW,198,9.0,9.0,95,0.00,,---,0.02,VWS V12.08,2013-07-01 01:25:00,
2013-06-30 21:26:00,68.0,66.5,29.84,SSW,199,7.0,9.0,95,0.00,,---,0.02,VWS V12.08,2013-07-01 01:26:00,
2013-06-30 21:27:00,68.1,66.6,29.84,SSW,197,6.0,9.0,95,0.00,,---,0.02,VWS V12.08,2013-07-01 01:27:00,
2013-06-30 21:28:00,68.1,66.6,29.84,SSW,198,7.0,10.0,95,0.00,,---,0.02,VWS V12.08,2013-07-01 01:28:00,
2013-06-30 21:29:00,68.0,66.5,29.84,SSW,209,6.0,10.0,95,0.00,,---,0.02,VWS V12.08,2013-07-01 01:29:00,
2013-06-30 21:30:00,68.0,66.5,29.84,SSW,199,7.0,10.0,95,0.00,,---,0.02,VWS V12.08,2013-07-01 01:30:00,
2013-06-30 21:31:00,68.0,66.5,29.84,SSW,199,5.0,7.0,95,0.00,,---,0.02,VWS V12.08,2013-07-01 01:31:00,
2013-06-30 21:32:00,68.1,66.6,29.84,SSW,198,9.0,11.0,95,0.00,,---,0.02,VWS V12.08,2013-07-01 01:32:00,
2013-06-30 21:33:00,68.1,66.6,29.84,SSW,194,11.0,12.0,95,0.00,,---,0.02,VWS V12.08,2013-07-01 01:33:00,
2013-06-30 21:34:00,68.2,66.7,29.84,SSW,195,10.0,12.0,95,0.00,,---,0.02,VWS V12.08,2013-07-01 01:34:00,
2013-06-30 21:36:00,68.2,66.7,29.84,SSW,192,12.0,13.0,95,0.00,,---,0.02,VWS V12.08,2013-07-01 01:36:00,
2013-06-30 21:37:00,68.2,66.7,29.84,SSW,192,12.0,13.0,95,0.00,,---,0.02,VWS V12.08,2013-07-01 01:37:00,
2013-06-30 21:38:00,68.2,66.7,29.84,SSW,192,12.0,13.0,95,0.00,,---,0.02,VWS V12.08,2013-07-01 01:38:00,
2013-06-30 21:39:00,68.3,66.8,29.84,SSW,193,10.0,14.0,95,0.00,,---,0.02,VWS V12.08,2013-07-01 01:39:00,
2013-06-30 21:41:00,68.3,66.8,29.84,SSW,198,10.0,14.0,95,0.00,,---,0.02,VWS V12.08,2013-07-01 01:41:00,
2013-06-30 21:43:00,68.3,66.8,29.84,SSW,201,9.0,12.0,95,0.00,,---,0.02,VWS V12.08,2013-07-01 01:43:00,
2013-06-30 21:44:00,68.3,66.8,29.85,SSW,194,13.0,13.0,95,0.00,,---,0.02,VWS V12.08,2013-07-01 01:44:00,
2013-06-30 21:46:00,68.3,66.8,29.85,SSW,204,7.0,13.0,95,0.00,,---,0.02,VWS V12.08,2013-07-01 01:46:00,
2013-06-30 21:48:00,68.3,66.8,29.85,SSW,202,7.0,13.0,95,0.00,,---,0.02,VWS V12.08,2013-07-01 01:48:00,
2013-06-30 21:50:00,68.3,66.8,29.85,SSW,200,9.0,13.0,95,0.00,,---,0.02,VWS V12.08,2013-07-01 01:50:00,
2013-06-30 21:51:00,68.3,66.8,29.85,SSW,202,8.0,10.0,95,0.00,,---,0.02,VWS V12.08,2013-07-01 01:51:00,
2013-06-30 21:53:00,68.4,66.9,29.85,SSW,202,9.0,11.0,95,0.00,,---,0.02,VWS V12.08,2013-07-01 01:53:00,
2013-06-30 21:55:00,68.4,66.9,29.85,SSW,203,10.0,11.0,95,0.00,,---,0.02,VWS V12.08,2013-07-01 01:55:00,
2013-06-30 21:56:00,68.4,66.9,29.85,SSW,213,7.0,11.0,95,0.00,,---,0.02,VWS V12.08,2013-07-01 01:56:00,
2013-06-30 21:58:00,68.5,67.0,29.85,SSW,205,10.0,11.0,95,0.00,,---,0.02,VWS V12.08,2013-07-01 01:58:00,
2013-06-30 22:00:00,68.5,67.0,29.85,SSW,204,5.0,11.0,95,0.00,,---,0.02,VWS V12.08,2013-07-01 02:00:00,
2013-06-30 22:01:00,68.5,67.0,29.85,SSW,207,7.0,8.0,95,0.00,,---,0.02,VWS V12.08,2013-07-01 02:01:00,
2013-06-30 22:03:00,68.5,67.0,29.85,SW,214,9.0,10.0,95,0.00,,---,0.02,VWS V12.08,2013-07-01 02:03:00,
2013-06-30 22:05:00,68.5,67.0,29.85,SW,214,6.0,10.0,95,0.00,,---,0.02,VWS V12.08,2013-07-01 02:05:00,
2013-06-30 22:06:00,68.5,67.0,29.85,SSW,211,6.0,10.0,95,0.00,,---,0.02,VWS V12.08,2013-07-01 02:06:00,
2013-06-30 22:08:00,68.6,67.1,29.85,SSW,212,7.0,10.0,95,0.00,,---,0.02,VWS V12.08,2013-07-01 02:08:00,
2013-06-30 22:10:00,68.7,67.2,29.85,SSW,206,7.0,10.0,95,0.00,,---,0.02,VWS V12.08,2013-07-01 02:10:00,
2013-06-30 22:12:00,68.7,67.2,29.85,SSW,206,6.0,10.0,95,0.00,,---,0.02,VWS V12.08,2013-07-01 02:12:00,
2013-06-30 22:13:00,68.7,67.2,29.85,SW,231,4.0,10.0,95,0.00,,---,0.02,VWS V12.08,2013-07-01 02:13:00,
2013-06-30 22:15:00,68.7,67.2,29.85,SW,223,5.0,10.0,95,0.00,,---,0.02,VWS V12.08,2013-07-01 02:15:00,
2013-06-30 22:17:00,68.8,67.3,29.85,SW,214,6.0,10.0,95,0.00,,---,0.02,VWS V12.08,2013-07-01 02:17:00,
2013-06-30 22:18:00,68.9,67.7,29.85,SW,215,5.0,10.0,96,0.00,,---,0.02,VWS V12.08,2013-07-01 02:18:00,
2013-06-30 22:19:00,68.9,67.7,29.85,SW,215,5.0,10.0,96,0.00,,---,0.02,VWS V12.08,2013-07-01 02:19:00,
2013-06-30 22:20:00,69.0,67.8,29.85,SSW,204,6.0,10.0,96,0.00,,---,0.02,VWS V12.08,2013-07-01 02:20:00,
2013-06-30 22:22:00,68.9,67.4,29.85,SSW,207,7.0,10.0,95,0.00,,---,0.02,VWS V12.08,2013-07-01 02:22:00,
2013-06-30 22:23:00,68.9,67.4,29.85,SSW,213,6.0,10.0,95,0.00,,---,0.02,VWS V12.08,2013-07-01 02:23:00,
2013-06-30 22:24:00,68.9,67.4,29.85,SSW,213,6.0,10.0,95,0.00,,---,0.02,VWS V12.08,2013-07-01 02:24:00,
2013-06-30 22:25:00,68.9,67.4,29.85,SW,221,6.0,10.0,95,0.00,,---,0.02,VWS V12.08,2013-07-01 02:25:00,
2013-06-30 22:27:00,68.8,67.3,29.85,SW,216,8.0,10.0,95,0.00,,---,0.02,VWS V12.08,2013-07-01 02:27:00,
2013-06-30 22:28:00,68.8,67.3,29.85,SSW,209,7.0,10.0,95,0.00,,---,0.02,VWS V12.08,2013-07-01 02:28:00,
2013-06-30 22:30:00,68.8,67.6,29.85,SSW,212,6.0,11.0,96,0.00,,---,0.02,VWS V12.08,2013-07-01 02:30:00,
2013-06-30 22:31:00,68.9,67.4,29.85,SSW,204,7.0,11.0,95,0.00,,---,0.02,VWS V12.08,2013-07-01 02:31:00,
2013-06-30 22:32:00,68.9,67.7,29.85,SSW,209,9.0,11.0,96,0.00,,---,0.02,VWS V12.08,2013-07-01 02:32:00,
2013-06-30 22:33:00,68.9,67.7,29.85,SSW,210,9.0,11.0,96,0.00,,---,0.02,VWS V12.08,2013-07-01 02:33:00,
2013-06-30 22:35:00,68.9,67.7,29.85,SW,220,6.0,11.0,96,0.00,,---,0.02,VWS V12.08,2013-07-01 02:35:00,
2013-06-30 22:36:00,68.9,67.7,29.85,SSW,196,8.0,11.0,96,0.00,,---,0.02,VWS V12.08,2013-07-01 02:36:00,
2013-06-30 22:37:00,68.9,67.7,29.85,SW,224,6.0,11.0,96,0.00,,---,0.02,VWS V12.08,2013-07-01 02:37:00,
2013-06-30 22:38:00,68.9,67.7,29.85,SSW,212,6.0,11.0,96,0.00,,---,0.02,VWS V12.08,2013-07-01 02:38:00,
2013-06-30 22:40:00,68.9,67.7,29.85,SSW,208,8.0,11.0,96,0.00,,---,0.02,VWS V12.08,2013-07-01 02:40:00,
2013-06-30 22:41:00,68.8,67.6,29.85,SSW,209,6.0,10.0,96,0.00,,---,0.02,VWS V12.08,2013-07-01 02:41:00,
2013-06-30 22:42:00,68.8,67.3,29.85,SSW,213,6.0,10.0,95,0.00,,---,0.02,VWS V12.08,2013-07-01 02:42:00,
2013-06-30 22:43:00,68.8,67.3,29.85,SSW,205,7.0,10.0,95,0.00,,---,0.02,VWS V12.08,2013-07-01 02:43:00,
2013-06-30 22:45:00,68.8,67.3,29.85,SSW,205,6.0,10.0,95,0.00,,---,0.02,VWS V12.08,2013-07-01 02:45:00,
2013-06-30 22:46:00,68.8,67.3,29.85,SW,221,7.0,10.0,95,0.00,,---,0.02,VWS V12.08,2013-07-01 02:46:00,
2013-06-30 22:47:00,68.8,67.6,29.85,SSW,210,7.0,10.0,96,0.00,,---,0.02,VWS V12.08,2013-07-01 02:47:00,
2013-06-30 22:48:00,68.9,67.7,29.85,SSW,203,5.0,10.0,96,0.00,,---,0.02,VWS V12.08,2013-07-01 02:48:00,
2013-06-30 22:50:00,69.0,67.8,29.84,SW,222,6.0,10.0,96,0.00,,---,0.02,VWS V12.08,2013-07-01 02:50:00,
2013-06-30 22:51:00,69.1,67.9,29.84,SSW,210,5.0,10.0,96,0.00,,---,0.02,VWS V12.08,2013-07-01 02:51:00,
2013-06-30 22:53:00,69.1,67.9,29.84,SSW,200,10.0,10.0,96,0.00,,---,0.02,VWS V12.08,2013-07-01 02:53:00,
2013-06-30 22:55:00,69.0,67.8,29.84,South,191,13.0,16.0,96,0.00,,---,0.02,VWS V12.08,2013-07-01 02:55:00,
2013-06-30 22:56:00,69.1,67.9,29.84,SSW,196,12.0,16.0,96,0.00,,---,0.02,VWS V12.08,2013-07-01 02:56:00,
2013-06-30 22:58:00,69.1,67.9,29.84,SSW,201,16.0,16.0,96,0.00,,---,0.02,VWS V12.08,2013-07-01 02:58:00,
2013-06-30 22:59:00,69.1,67.9,29.84,SSW,201,16.0,16.0,96,0.00,,---,0.02,VWS V12.08,2013-07-01 02:59:00,
2013-06-30 23:00:00,69.1,67.9,29.84,SSW,197,17.0,19.0,96,0.00,,---,0.02,VWS V12.08,2013-07-01 03:00:00,
2013-06-30 23:02:00,69.1,67.9,29.84,South,185,21.0,22.0,96,0.00,,---,0.02,VWS V12.08,2013-07-01 03:02:00,
2013-06-30 23:03:00,69.1,67.9,29.84,South,182,21.0,22.0,96,0.00,,---,0.02,VWS V12.08,2013-07-01 03:03:00,
2013-06-30 23:04:00,69.1,67.9,29.84,South,180,19.0,22.0,96,0.00,,---,0.02,VWS V12.08,2013-07-01 03:04:00,
2013-06-30 23:05:00,69.1,67.9,29.84,SSW,196,18.0,22.0,96,0.00,,---,0.02,VWS V12.08,2013-07-01 03:05:00,
2013-06-30 23:07:00,69.0,67.8,29.84,South,189,17.0,22.0,96,0.00,,---,0.02,VWS V12.08,2013-07-01 03:07:00,
2013-06-30 23:08:00,69.0,67.8,29.84,South,184,18.0,22.0,96,0.00,,---,0.02,VWS V12.08,2013-07-01 03:08:00,
2013-06-30 23:09:00,68.9,67.7,29.84,SSW,192,18.0,22.0,96,0.00,,---,0.02,VWS V12.08,2013-07-01 03:09:00,
2013-06-30 23:11:00,68.8,67.6,29.84,South,190,16.0,17.0,96,0.00,,---,0.02,VWS V12.08,2013-07-01 03:11:00,
2013-06-30 23:12:00,68.8,67.6,29.84,South,188,15.0,19.0,96,0.00,,---,0.02,VWS V12.08,2013-07-01 03:12:00,
2013-06-30 23:13:00,68.8,67.6,29.84,South,190,16.0,19.0,96,0.00,,---,0.02,VWS V12.08,2013-07-01 03:13:00,
2013-06-30 23:14:00,68.8,67.6,29.84,South,187,17.0,19.0,96,0.00,,---,0.02,VWS V12.08,2013-07-01 03:14:00,
2013-06-30 23:16:00,68.8,67.6,29.84,South,186,16.0,19.0,96,0.00,,---,0.02,VWS V12.08,2013-07-01 03:16:00,
2013-06-30 23:17:00,68.8,67.6,29.84,South,181,17.0,19.0,96,0.00,,---,0.02,VWS V12.08,2013-07-01 03:17:00,
2013-06-30 23:18:00,68.8,67.6,29.84,South,189,16.0,19.0,96,0.00,,---,0.02,VWS V12.08,2013-07-01 03:18:00,
2013-06-30 23:19:00,68.8,67.6,29.84,South,186,15.0,19.0,96,0.00,,---,0.02,VWS V12.08,2013-07-01 03:19:00,
2013-06-30 23:21:00,68.7,67.5,29.84,South,188,15.0,15.0,96,0.00,,---,0.02,VWS V12.08,2013-07-01 03:21:00,
2013-06-30 23:22:00,68.7,67.5,29.84,South,188,13.0,15.0,96,0.00,,---,0.02,VWS V12.08,2013-07-01 03:22:00,
2013-06-30 23:23:00,68.6,67.4,29.84,South,191,13.0,15.0,96,0.00,,---,0.02,VWS V12.08,2013-07-01 03:23:00,
2013-06-30 23:24:00,68.6,67.4,29.84,SSW,207,12.0,15.0,96,0.00,,---,0.02,VWS V12.08,2013-07-01 03:24:00,
2013-06-30 23:26:00,68.5,67.3,29.85,SSW,199,13.0,15.0,96,0.00,,---,0.02,VWS V12.08,2013-07-01 03:26:00,
2013-06-30 23:27:00,68.5,67.3,29.85,SSW,193,12.0,15.0,96,0.00,,---,0.02,VWS V12.08,2013-07-01 03:27:00,
2013-06-30 23:29:00,68.5,67.3,29.85,South,187,13.0,15.0,96,0.00,,---,0.02,VWS V12.08,2013-07-01 03:29:00,
2013-06-30 23:31:00,68.4,67.2,29.85,SSW,197,11.0,13.0,96,0.00,,---,0.02,VWS V12.08,2013-07-01 03:31:00,
2013-06-30 23:32:00,68.4,67.2,29.85,South,190,14.0,14.0,96,0.00,,---,0.02,VWS V12.08,2013-07-01 03:32:00,
2013-06-30 23:34:00,68.4,67.2,29.85,SSW,198,11.0,14.0,96,0.00,,---,0.02,VWS V12.08,2013-07-01 03:34:00,
2013-06-30 23:35:00,68.4,67.2,29.85,SSW,202,13.0,14.0,96,0.00,,---,0.02,VWS V12.08,2013-07-01 03:35:00,
2013-06-30 23:36:00,68.3,67.1,29.85,SSW,209,11.0,14.0,96,0.00,,---,0.02,VWS V12.08,2013-07-01 03:36:00,
2013-06-30 23:37:00,68.3,67.1,29.85,SSW,196,10.0,14.0,96,0.00,,---,0.02,VWS V12.08,2013-07-01 03:37:00,
2013-06-30 23:39:00,68.3,67.1,29.85,SSW,196,11.0,14.0,96,0.00,,---,0.02,VWS V12.08,2013-07-01 03:39:00,
2013-06-30 23:40:00,68.3,67.1,29.85,SSW,200,11.0,14.0,96,0.00,,---,0.02,VWS V12.08,2013-07-01 03:40:00,
2013-06-30 23:41:00,68.2,67.0,29.85,SSW,196,9.0,12.0,96,0.00,,---,0.02,VWS V12.08,2013-07-01 03:41:00,
2013-06-30 23:43:00,68.2,67.0,29.85,SSW,195,9.0,12.0,96,0.00,,---,0.02,VWS V12.08,2013-07-01 03:43:00,
2013-06-30 23:44:00,68.2,67.0,29.85,SSW,207,6.0,12.0,96,0.00,,---,0.02,VWS V12.08,2013-07-01 03:44:00,
2013-06-30 23:45:00,68.2,67.0,29.85,SSW,213,6.0,12.0,96,0.00,,---,0.02,VWS V12.08,2013-07-01 03:45:00,
2013-06-30 23:47:00,68.1,66.9,29.85,SW,216,6.0,12.0,96,0.00,,---,0.02,VWS V12.08,2013-07-01 03:47:00,
2013-06-30 23:48:00,68.1,66.9,29.85,SSW,213,7.0,12.0,96,0.00,,---,0.02,VWS V12.08,2013-07-01 03:48:00,
2013-06-30 23:50:00,68.0,66.8,29.85,SSW,209,5.0,12.0,96,0.00,,---,0.02,VWS V12.08,2013-07-01 03:50:00,
2013-06-30 23:52:00,67.8,66.6,29.85,SSW,211,5.0,6.0,96,0.00,,---,0.02,VWS V12.08,2013-07-01 03:52:00,
2013-06-30 23:53:00,67.8,66.6,29.85,SSW,210,5.0,6.0,96,0.00,,---,0.02,VWS V12.08,2013-07-01 03:53:00,
2013-06-30 23:55:00,67.8,66.6,29.85,SW,220,4.0,8.0,96,0.00,,---,0.02,VWS V12.08,2013-07-01 03:55:00,
2013-06-30 23:57:00,67.7,66.5,29.85,SW,215,4.0,8.0,96,0.00,,---,0.02,VWS V12.08,2013-07-01 03:57:00,
2013-06-30 23:58:00,67.7,66.5,29.85,SSW,212,4.0,10.0,96,0.00,,---,0.02,VWS V12.08,2013-07-01 03:58:00,